Observation data for Throckmorton on 05/13/2018      Previous  Date  Next       Current Mesonet Observations  Soil Data  Daily Summary Page  Observations in Plain Language
KTH1 130500Z 14010KT 25/17 A2991 RMK A01 T02500169  RH  061%=      5-min Rain = 0
KTH1 130501Z 15010KT 25/17 A2991 RMK A01 T02500170  RH  061%=      5-min Rain = 0
KTH1 130502Z 15011G19KT 25/17 A2991 RMK A01 T02490170  RH  061%=      5-min Rain = 0
KTH1 130503Z 15012KT 25/17 A2991 RMK A01 T02490170  RH  061%=      5-min Rain = 0
KTH1 130504Z 15011KT 25/17 A2991 RMK A01 T02490169  RH  061%=      5-min Rain = 0
KTH1 130505Z 15011KT 25/17 A2991 RMK A01 T02490169  RH  061%=      5-min Rain = 0
KTH1 130506Z 15011G17KT 25/17 A2991 RMK A01 T02490170  RH  061%=      5-min Rain = 0
KTH1 130507Z 15013KT 25/17 A2991 RMK A01 T02490170  RH  061%=      5-min Rain = 0
KTH1 130508Z 15011KT 25/17 A2991 RMK A01 T02490170  RH  061%=      5-min Rain = 0
KTH1 130509Z 15011G17KT 25/17 A2991 RMK A01 T02490169  RH  061%=      5-min Rain = 0
KTH1 130510Z 15013G19KT 25/17 A2991 RMK A01 T02490169  RH  061%=      5-min Rain = 0
KTH1 130511Z 15015G20KT 25/17 A2991 RMK A01 T02490169  RH  061%=      5-min Rain = 0
KTH1 130512Z 15011G16KT 25/17 A2991 RMK A01 T02500169  RH  061%=      5-min Rain = 0
KTH1 130513Z 15012KT 25/17 A2991 RMK A01 T02490169  RH  061%=      5-min Rain = 0
KTH1 130514Z 15010G15KT 25/17 A2991 RMK A01 T02500170  RH  061%=      5-min Rain = 0
KTH1 130515Z 15011G16KT 25/17 A2991 RMK A01 T02500169  RH  061%=      5-min Rain = 0
KTH1 130516Z 15011G17KT 25/17 A2991 RMK A01 T02490169  RH  061%=      5-min Rain = 0
KTH1 130517Z 15013KT 25/17 A2991 RMK A01 T02500170  RH  061%=      5-min Rain = 0
KTH1 130518Z 15013KT 25/17 A2991 RMK A01 T02500170  RH  061%=      5-min Rain = 0
KTH1 130519Z 14012KT 25/17 A2991 RMK A01 T02500169  RH  061%=      5-min Rain = 0
KTH1 130520Z 15012G17KT 25/17 A2991 RMK A01 T02500169  RH  061%=      5-min Rain = 0
KTH1 130521Z 15012KT 25/17 A2991 RMK A01 T02500169  RH  061%=      5-min Rain = 0
KTH1 130522Z 15009KT 25/17 A2991 RMK A01 T02500169  RH  061%=      5-min Rain = 0
KTH1 130523Z 15011KT 25/17 A2991 RMK A01 T02500170  RH  061%=      5-min Rain = 0
KTH1 130524Z 15012KT 25/17 A2991 RMK A01 T02490169  RH  061%=      5-min Rain = 0
KTH1 130525Z 15011KT 25/17 A2991 RMK A01 T02490169  RH  061%=      5-min Rain = 0
KTH1 130526Z 15009KT 25/17 A2991 RMK A01 T02490169  RH  061%=      5-min Rain = 0
KTH1 130527Z 15009G15KT 25/17 A2991 RMK A01 T02490170  RH  061%=      5-min Rain = 0
KTH1 130528Z 15011KT 25/17 A2991 RMK A01 T02490170  RH  061%=      5-min Rain = 0
KTH1 130529Z 15012KT 25/17 A2991 RMK A01 T02490170  RH  061%=      5-min Rain = 0
KTH1 130530Z 15012KT 25/17 A2991 RMK A01 T02490169  RH  061%=      5-min Rain = 0
KTH1 130531Z 15008KT 25/17 A2991 RMK A01 T02490169  RH  061%=      5-min Rain = 0
KTH1 130532Z 15011KT 25/17 A2992 RMK A01 T02490170  RH  061%=      5-min Rain = 0
KTH1 130533Z 15011KT 25/17 A2992 RMK A01 T02490170  RH  061%=      5-min Rain = 0
KTH1 130534Z 15010KT 25/17 A2992 RMK A01 T02490170  RH  061%=      5-min Rain = 0
KTH1 130535Z 15010G15KT 25/17 A2992 RMK A01 T02490170  RH  061%=      5-min Rain = 0
KTH1 130536Z 16008KT 25/17 A2992 RMK A01 T02490170  RH  061%=      5-min Rain = 0
KTH1 130537Z 15010KT 25/17 A2992 RMK A01 T02490170  RH  062%=      5-min Rain = 0
KTH1 130538Z 16009KT 25/17 A2992 RMK A01 T02480170  RH  062%=      5-min Rain = 0
KTH1 130539Z 16009KT 25/17 A2992 RMK A01 T02480170  RH  062%=      5-min Rain = 0
KTH1 130540Z 16010KT 25/17 A2992 RMK A01 T02480170  RH  062%=      5-min Rain = 0
KTH1 130541Z 15010KT 25/17 A2992 RMK A01 T02470170  RH  062%=      5-min Rain = 0
KTH1 130542Z 15009G14KT 25/17 A2992 RMK A01 T02470170  RH  062%=      5-min Rain = 0
KTH1 130543Z 16011KT 25/17 A2992 RMK A01 T02470170  RH  062%=      5-min Rain = 0
KTH1 130544Z 16009KT 25/17 A2992 RMK A01 T02470170  RH  062%=      5-min Rain = 0
KTH1 130545Z 15011KT 25/17 A2992 RMK A01 T02470170  RH  062%=      5-min Rain = 0
KTH1 130546Z 16009KT 25/17 A2992 RMK A01 T02480170  RH  062%=      5-min Rain = 0
KTH1 130547Z 16010KT 25/17 A2992 RMK A01 T02480170  RH  062%=      5-min Rain = 0
KTH1 130548Z 16008KT 25/17 A2992 RMK A01 T02480170  RH  062%=      5-min Rain = 0
KTH1 130549Z 16010KT 25/17 A2992 RMK A01 T02480170  RH  062%=      5-min Rain = 0
KTH1 130550Z 15008KT 25/17 A2992 RMK A01 T02480170  RH  062%=      5-min Rain = 0
KTH1 130551Z 15010G15KT 25/17 A2992 RMK A01 T02480170  RH  062%=      5-min Rain = 0
KTH1 130552Z 15011KT 25/17 A2992 RMK A01 T02470170  RH  062%=      5-min Rain = 0
KTH1 130553Z 16010KT 25/17 A2992 RMK A01 T02470170  RH  062%=      5-min Rain = 0
KTH1 130554Z 16008KT 25/17 A2992 RMK A01 T02470170  RH  062%=      5-min Rain = 0
KTH1 130555Z 15010G15KT 25/17 A2992 RMK A01 T02470170  RH  062%=      5-min Rain = 0
KTH1 130556Z 15008KT 25/17 A2992 RMK A01 T02470170  RH  062%=      5-min Rain = 0
KTH1 130557Z 16009KT 25/17 A2992 RMK A01 T02470170  RH  062%=      5-min Rain = 0
KTH1 130558Z 16009KT 25/17 A2992 RMK A01 T02470170  RH  062%=      5-min Rain = 0
KTH1 130559Z 16007KT 25/17 A2992 RMK A01 T02460170  RH  063%=      5-min Rain = 0
KTH1 130600Z 15009KT 25/17 A2992 RMK A01 T02460171  RH  063%=      5-min Rain = 0
KTH1 130601Z 16007KT 25/17 A2992 RMK A01 T02460170  RH  063%=      5-min Rain = 0
KTH1 130602Z 16006KT 25/17 A2992 RMK A01 T02460171  RH  063%=      5-min Rain = 0
KTH1 130603Z 16007KT 25/17 A2992 RMK A01 T02450171  RH  063%=      5-min Rain = 0
KTH1 130604Z 16007KT 25/17 A2992 RMK A01 T02450171  RH  063%=      5-min Rain = 0
KTH1 130605Z 16009KT 24/17 A2992 RMK A01 T02440171  RH  064%=      5-min Rain = 0
KTH1 130606Z 15008KT 24/17 A2992 RMK A01 T02440171  RH  064%=      5-min Rain = 0
KTH1 130607Z 16007KT 24/17 A2992 RMK A01 T02440170  RH  064%=      5-min Rain = 0
KTH1 130608Z 16008G14KT 24/17 A2992 RMK A01 T02440171  RH  064%=      5-min Rain = 0
KTH1 130609Z 16008KT 24/17 A2992 RMK A01 T02430170  RH  064%=      5-min Rain = 0
KTH1 130610Z 15009KT 24/17 A2992 RMK A01 T02440171  RH  064%=      5-min Rain = 0
KTH1 130611Z 16009KT 24/17 A2992 RMK A01 T02440171  RH  064%=      5-min Rain = 0
KTH1 130612Z 15009KT 24/17 A2992 RMK A01 T02430171  RH  064%=      5-min Rain = 0
KTH1 130613Z 15009KT 24/17 A2991 RMK A01 T02430170  RH  064%=      5-min Rain = 0
KTH1 130614Z 15008KT 24/17 A2991 RMK A01 T02430171  RH  064%=      5-min Rain = 0
KTH1 130615Z 15010KT 24/17 A2991 RMK A01 T02430170  RH  064%=      5-min Rain = 0
KTH1 130616Z 15009G14KT 24/17 A2991 RMK A01 T02430171  RH  064%=      5-min Rain = 0
KTH1 130617Z 15010KT 24/17 A2991 RMK A01 T02430170  RH  064%=      5-min Rain = 0
KTH1 130618Z 15010KT 24/17 A2991 RMK A01 T02420171  RH  064%=      5-min Rain = 0
KTH1 130619Z 15010KT 24/17 A2991 RMK A01 T02420171  RH  064%=      5-min Rain = 0
KTH1 130620Z 15009KT 24/17 A2991 RMK A01 T02420171  RH  064%=      5-min Rain = 0
KTH1 130621Z 14011KT 24/17 A2991 RMK A01 T02410170  RH  065%=      5-min Rain = 0
KTH1 130622Z 15011KT 24/17 A2991 RMK A01 T02410171  RH  065%=      5-min Rain = 0
KTH1 130623Z 15009KT 24/17 A2991 RMK A01 T02410171  RH  065%=      5-min Rain = 0
KTH1 130624Z 15009KT 24/17 A2991 RMK A01 T02410171  RH  065%=      5-min Rain = 0
KTH1 130625Z 16010KT 24/17 A2991 RMK A01 T02400170  RH  065%=      5-min Rain = 0
KTH1 130626Z 15008KT 24/17 A2991 RMK A01 T02400171  RH  065%=      5-min Rain = 0
KTH1 130627Z 15008KT 24/17 A2991 RMK A01 T02400171  RH  065%=      5-min Rain = 0
KTH1 130628Z 15010KT 24/17 A2991 RMK A01 T02390170  RH  065%=      5-min Rain = 0
KTH1 130629Z 15010KT 24/17 A2991 RMK A01 T02390170  RH  065%=      5-min Rain = 0
KTH1 130630Z 15010KT 24/17 A2991 RMK A01 T02390170  RH  065%=      5-min Rain = 0
KTH1 130631Z 16010KT 24/17 A2991 RMK A01 T02390170  RH  065%=      5-min Rain = 0
KTH1 130632Z 16007KT 24/17 A2991 RMK A01 T02390170  RH  065%=      5-min Rain = 0
KTH1 130633Z 15008KT 24/17 A2991 RMK A01 T02390170  RH  065%=      5-min Rain = 0
KTH1 130634Z 16008G14KT 24/17 A2991 RMK A01 T02390170  RH  065%=      5-min Rain = 0
KTH1 130635Z 16009KT 24/17 A2991 RMK A01 T02400170  RH  065%=      5-min Rain = 0
KTH1 130636Z 15009KT 24/17 A2991 RMK A01 T02400170  RH  065%=      5-min Rain = 0
KTH1 130637Z 15010KT 24/17 A2991 RMK A01 T02390170  RH  065%=      5-min Rain = 0
KTH1 130638Z 16010KT 24/17 A2991 RMK A01 T02390170  RH  065%=      5-min Rain = 0
KTH1 130639Z 15010KT 24/17 A2991 RMK A01 T02400170  RH  065%=      5-min Rain = 0
KTH1 130640Z 15010KT 24/17 A2991 RMK A01 T02400170  RH  065%=      5-min Rain = 0
KTH1 130641Z 15010G15KT 24/17 A2991 RMK A01 T02390170  RH  065%=      5-min Rain = 0
KTH1 130642Z 15011G16KT 24/17 A2991 RMK A01 T02390170  RH  065%=      5-min Rain = 0
KTH1 130643Z 15007G12KT 24/17 A2991 RMK A01 T02390169  RH  065%=      5-min Rain = 0
KTH1 130644Z 15009KT 24/17 A2991 RMK A01 T02400170  RH  065%=      5-min Rain = 0
KTH1 130645Z 15008KT 24/17 A2991 RMK A01 T02400170  RH  065%=      5-min Rain = 0
KTH1 130646Z 15008KT 24/17 A2991 RMK A01 T02400170  RH  065%=      5-min Rain = 0
KTH1 130647Z 16010KT 24/17 A2991 RMK A01 T02400170  RH  065%=      5-min Rain = 0
KTH1 130648Z 15009KT 24/17 A2991 RMK A01 T02390170  RH  065%=      5-min Rain = 0
KTH1 130649Z 15010G15KT 24/17 A2991 RMK A01 T02400169  RH  065%=      5-min Rain = 0
KTH1 130650Z 15011KT 24/17 A2991 RMK A01 T02400170  RH  065%=      5-min Rain = 0
KTH1 130651Z 16009G15KT 24/17 A2991 RMK A01 T02400170  RH  065%=      5-min Rain = 0
KTH1 130652Z 16009KT 24/17 A2991 RMK A01 T02410169  RH  064%=      5-min Rain = 0
KTH1 130653Z 16009KT 24/17 A2991 RMK A01 T02410169  RH  064%=      5-min Rain = 0
KTH1 130654Z 16009KT 24/17 A2991 RMK A01 T02410170  RH  064%=      5-min Rain = 0
KTH1 130655Z 16008KT 24/17 A2991 RMK A01 T02410170  RH  065%=      5-min Rain = 0
KTH1 130656Z 15009KT 24/17 A2991 RMK A01 T02400170  RH  065%=      5-min Rain = 0
KTH1 130657Z 16010KT 24/17 A2991 RMK A01 T02400170  RH  065%=      5-min Rain = 0
KTH1 130658Z 16008KT 24/17 A2991 RMK A01 T02400170  RH  065%=      5-min Rain = 0
KTH1 130659Z 15009KT 24/17 A2991 RMK A01 T02400170  RH  065%=      5-min Rain = 0
KTH1 130700Z 15008KT 24/17 A2991 RMK A01 T02400169  RH  065%=      5-min Rain = 0
KTH1 130701Z 16008KT 24/17 A2991 RMK A01 T02400169  RH  064%=      5-min Rain = 0
KTH1 130702Z 15008G13KT 24/17 A2991 RMK A01 T02400169  RH  064%=      5-min Rain = 0
KTH1 130703Z 15010KT 24/17 A2991 RMK A01 T02400169  RH  064%=      5-min Rain = 0
KTH1 130704Z 16011KT 24/17 A2991 RMK A01 T02400169  RH  064%=      5-min Rain = 0
KTH1 130705Z 16011KT 24/17 A2991 RMK A01 T02410169  RH  064%=      5-min Rain = 0
KTH1 130706Z 15008KT 24/17 A2991 RMK A01 T02410170  RH  064%=      5-min Rain = 0
KTH1 130707Z 15008KT 24/17 A2991 RMK A01 T02410170  RH  064%=      5-min Rain = 0
KTH1 130708Z 16010KT 24/17 A299 RMK A01 T02410170  RH  065%=      5-min Rain = 0
KTH1 130709Z 15008KT 24/17 A299 RMK A01 T02400170  RH  065%=      5-min Rain = 0
KTH1 130710Z 15011KT 24/17 A299 RMK A01 T02400170  RH  065%=      5-min Rain = 0
KTH1 130711Z 15010KT 24/17 A299 RMK A01 T02400170  RH  065%=      5-min Rain = 0
KTH1 130712Z 16011KT 24/17 A299 RMK A01 T02400170  RH  065%=      5-min Rain = 0
KTH1 130713Z 16008G14KT 24/17 A299 RMK A01 T02410170  RH  064%=      5-min Rain = 0
KTH1 130714Z 16008KT 24/17 A299 RMK A01 T02410170  RH  064%=      5-min Rain = 0
KTH1 130715Z 15010G15KT 24/17 A299 RMK A01 T02410170  RH  065%=      5-min Rain = 0
KTH1 130716Z 16008G13KT 24/17 A2991 RMK A01 T02410170  RH  065%=      5-min Rain = 0
KTH1 130717Z 16009G15KT 24/17 A2991 RMK A01 T02410170  RH  065%=      5-min Rain = 0
KTH1 130718Z 16010G15KT 24/17 A2991 RMK A01 T02410170  RH  065%=      5-min Rain = 0
KTH1 130719Z 16009G17KT 24/17 A2991 RMK A01 T02410170  RH  064%=      5-min Rain = 0
KTH1 130720Z 16008KT 24/17 A2991 RMK A01 T02410170  RH  064%=      5-min Rain = 0
KTH1 130721Z 17010KT 24/17 A2991 RMK A01 T02410170  RH  065%=      5-min Rain = 0
KTH1 130722Z 16007KT 24/17 A2991 RMK A01 T02410171  RH  065%=      5-min Rain = 0
KTH1 130723Z 16009KT 24/17 A2991 RMK A01 T02410171  RH  065%=      5-min Rain = 0
KTH1 130724Z 16009KT 24/17 A2991 RMK A01 T02410171  RH  065%=      5-min Rain = 0
KTH1 130725Z 16008KT 24/17 A2991 RMK A01 T02410171  RH  065%=      5-min Rain = 0
KTH1 130726Z 16009G14KT 24/17 A2991 RMK A01 T02410171  RH  065%=      5-min Rain = 0
KTH1 130727Z 17009KT 24/17 A2991 RMK A01 T02400171  RH  065%=      5-min Rain = 0
KTH1 130728Z 16009KT 24/17 A2991 RMK A01 T02400171  RH  065%=      5-min Rain = 0
KTH1 130729Z 16009KT 24/17 A2991 RMK A01 T02400171  RH  065%=      5-min Rain = 0
KTH1 130730Z 16009KT 24/17 A2991 RMK A01 T02400172  RH  065%=      5-min Rain = 0
KTH1 130731Z 16009KT 24/17 A2991 RMK A01 T02400172  RH  066%=      5-min Rain = 0
KTH1 130732Z 17010G15KT 24/17 A2991 RMK A01 T02400171  RH  066%=      5-min Rain = 0
KTH1 130733Z 17009KT 24/17 A2991 RMK A01 T02400171  RH  066%=      5-min Rain = 0
KTH1 130734Z 16008KT 24/17 A2991 RMK A01 T02400171  RH  066%=      5-min Rain = 0
KTH1 130735Z 17009G14KT 24/17 A2991 RMK A01 T02400172  RH  066%=      5-min Rain = 0
KTH1 130736Z 16008KT 24/17 A2991 RMK A01 T02400172  RH  066%=      5-min Rain = 0
KTH1 130737Z 17012KT 24/17 A2991 RMK A01 T02400172  RH  066%=      5-min Rain = 0
KTH1 130738Z 16009KT 24/17 A2991 RMK A01 T02390172  RH  066%=      5-min Rain = 0
KTH1 130739Z 17008KT 24/17 A2991 RMK A01 T02390172  RH  066%=      5-min Rain = 0
KTH1 130740Z 16008KT 24/17 A2991 RMK A01 T02390172  RH  066%=      5-min Rain = 0
KTH1 130741Z 17008G13KT 24/17 A2991 RMK A01 T02390172  RH  066%=      5-min Rain = 0
KTH1 130742Z 16009KT 24/17 A2991 RMK A01 T02390172  RH  066%=      5-min Rain = 0
KTH1 130743Z 17011KT 24/17 A2991 RMK A01 T02400172  RH  066%=      5-min Rain = 0
KTH1 130744Z 17009G14KT 24/17 A2991 RMK A01 T02400172  RH  066%=      5-min Rain = 0
KTH1 130745Z 17009KT 24/17 A2991 RMK A01 T02390172  RH  066%=      5-min Rain = 0
KTH1 130746Z 16008KT 24/17 A2991 RMK A01 T02390172  RH  066%=      5-min Rain = 0
KTH1 130747Z 16006KT 24/17 A2991 RMK A01 T02390173  RH  066%=      5-min Rain = 0
KTH1 130748Z 16006G11KT 24/17 A2991 RMK A01 T02380173  RH  067%=      5-min Rain = 0
KTH1 130749Z 16009KT 24/17 A2991 RMK A01 T02380173  RH  067%=      5-min Rain = 0
KTH1 130750Z 16008KT 24/17 A299 RMK A01 T02370172  RH  067%=      5-min Rain = 0
KTH1 130751Z 15010G15KT 24/17 A299 RMK A01 T02370173  RH  067%=      5-min Rain = 0
KTH1 130752Z 15009KT 24/17 A299 RMK A01 T02370173  RH  067%=      5-min Rain = 0
KTH1 130753Z 15008G13KT 24/17 A299 RMK A01 T02370172  RH  067%=      5-min Rain = 0
KTH1 130754Z 15009KT 24/17 A299 RMK A01 T02370173  RH  067%=      5-min Rain = 0
KTH1 130755Z 15008KT 24/17 A299 RMK A01 T02370173  RH  067%=      5-min Rain = 0
KTH1 130756Z 16008KT 24/17 A299 RMK A01 T02360173  RH  068%=      5-min Rain = 0
KTH1 130757Z 16007KT 24/17 A299 RMK A01 T02360173  RH  068%=      5-min Rain = 0
KTH1 130758Z 15008KT 24/17 A2991 RMK A01 T02360173  RH  068%=      5-min Rain = 0
KTH1 130759Z 16009KT 24/17 A2991 RMK A01 T02350173  RH  068%=      5-min Rain = 0
KTH1 130800Z 15008KT 24/17 A2991 RMK A01 T02350173  RH  068%=      5-min Rain = 0
KTH1 130801Z 15006KT 24/17 A2991 RMK A01 T02350174  RH  068%=      5-min Rain = 0
KTH1 130802Z 15007KT 24/17 A2991 RMK A01 T02350174  RH  069%=      5-min Rain = 0
KTH1 130803Z 16007KT 23/17 A2991 RMK A01 T02340173  RH  069%=      5-min Rain = 0
KTH1 130804Z 16007KT 23/17 A2991 RMK A01 T02340173  RH  069%=      5-min Rain = 0
KTH1 130805Z 15006KT 23/17 A2991 RMK A01 T02340174  RH  069%=      5-min Rain = 0
KTH1 130806Z 16007KT 23/17 A2991 RMK A01 T02340174  RH  069%=      5-min Rain = 0
KTH1 130807Z 17008KT 23/17 A2991 RMK A01 T02340174  RH  069%=      5-min Rain = 0
KTH1 130808Z 16007KT 23/17 A2991 RMK A01 T02330174  RH  069%=      5-min Rain = 0
KTH1 130809Z 16006KT 23/17 A2991 RMK A01 T02330174  RH  069%=      5-min Rain = 0
KTH1 130810Z 17008KT 23/17 A2991 RMK A01 T02330174  RH  069%=      5-min Rain = 0
KTH1 130811Z 16007KT 23/17 A2991 RMK A01 T02330174  RH  069%=      5-min Rain = 0
KTH1 130812Z 16006G11KT 23/17 A2991 RMK A01 T02330174  RH  070%=      5-min Rain = 0
KTH1 130813Z 16008KT 23/17 A2991 RMK A01 T02330174  RH  069%=      5-min Rain = 0
KTH1 130814Z 16006KT 23/17 A2991 RMK A01 T02330174  RH  069%=      5-min Rain = 0
KTH1 130815Z 16008KT 23/17 A2991 RMK A01 T02330174  RH  069%=      5-min Rain = 0
KTH1 130816Z 16007KT 23/18 A2991 RMK A01 T02330175  RH  070%=      5-min Rain = 0
KTH1 130817Z 15008KT 23/18 A2991 RMK A01 T02330175  RH  070%=      5-min Rain = 0
KTH1 130818Z 16007KT 23/18 A2991 RMK A01 T02330175  RH  070%=      5-min Rain = 0
KTH1 130819Z 16006KT 23/18 A2991 RMK A01 T02320175  RH  070%=      5-min Rain = 0
KTH1 130820Z 16008KT 23/18 A2991 RMK A01 T02330175  RH  070%=      5-min Rain = 0
KTH1 130821Z 17007KT 23/18 A2991 RMK A01 T02330175  RH  070%=      5-min Rain = 0
KTH1 130822Z 17006KT 23/18 A2991 RMK A01 T02320175  RH  070%=      5-min Rain = 0
KTH1 130823Z 16009KT 23/18 A2991 RMK A01 T02320175  RH  070%=      5-min Rain = 0
KTH1 130824Z 17009KT 23/18 A2991 RMK A01 T02320175  RH  070%=      5-min Rain = 0
KTH1 130825Z 16008KT 23/18 A2991 RMK A01 T02330176  RH  070%=      5-min Rain = 0
KTH1 130826Z 15007KT 23/18 A2991 RMK A01 T02330175  RH  070%=      5-min Rain = 0
KTH1 130827Z 16007KT 23/18 A2991 RMK A01 T02320175  RH  070%=      5-min Rain = 0
KTH1 130828Z 17008KT 23/18 A2991 RMK A01 T02330176  RH  070%=      5-min Rain = 0
KTH1 130829Z 16009KT 23/18 A2991 RMK A01 T02320176  RH  070%=      5-min Rain = 0
KTH1 130830Z 17008KT 23/18 A2991 RMK A01 T02330176  RH  070%=      5-min Rain = 0
KTH1 130831Z 16007G13KT 23/18 A2991 RMK A01 T02330176  RH  071%=      5-min Rain = 0
KTH1 130832Z 16008KT 23/18 A2991 RMK A01 T02320176  RH  071%=      5-min Rain = 0
KTH1 130833Z 16009KT 23/18 A2991 RMK A01 T02330177  RH  071%=      5-min Rain = 0
KTH1 130834Z 17009KT 23/18 A2991 RMK A01 T02330177  RH  071%=      5-min Rain = 0
KTH1 130835Z 17007KT 23/18 A2991 RMK A01 T02330177  RH  071%=      5-min Rain = 0
KTH1 130836Z 16008KT 23/18 A2991 RMK A01 T02340178  RH  071%=      5-min Rain = 0
KTH1 130837Z 16008KT 23/18 A2991 RMK A01 T02330177  RH  071%=      5-min Rain = 0
KTH1 130838Z 17009KT 23/18 A2991 RMK A01 T02340178  RH  071%=      5-min Rain = 0
KTH1 130839Z 16007KT 23/18 A2991 RMK A01 T02340178  RH  071%=      5-min Rain = 0
KTH1 130840Z 16008KT 23/18 A2991 RMK A01 T02340178  RH  071%=      5-min Rain = 0
KTH1 130841Z 17010KT 23/18 A2991 RMK A01 T02340178  RH  071%=      5-min Rain = 0
KTH1 130842Z 17009KT 23/18 A2991 RMK A01 T02330178  RH  071%=      5-min Rain = 0
KTH1 130843Z 17010KT 23/18 A2991 RMK A01 T02340178  RH  071%=      5-min Rain = 0
KTH1 130844Z 17009KT 23/18 A2991 RMK A01 T02340178  RH  071%=      5-min Rain = 0
KTH1 130845Z 17009G14KT 23/18 A2991 RMK A01 T02340178  RH  071%=      5-min Rain = 0
KTH1 130846Z 16006G11KT 24/18 A2991 RMK A01 T02350178  RH  071%=      5-min Rain = 0
KTH1 130847Z 16007KT 24/18 A2991 RMK A01 T02350179  RH  071%=      5-min Rain = 0
KTH1 130848Z 17008KT 24/18 A2991 RMK A01 T02350179  RH  071%=      5-min Rain = 0
KTH1 130849Z 17005KT 23/18 A2991 RMK A01 T02340179  RH  071%=      5-min Rain = 0
KTH1 130850Z 17007KT 24/18 A2991 RMK A01 T02350179  RH  071%=      5-min Rain = 0
KTH1 130851Z 16006KT 23/18 A2991 RMK A01 T02340179  RH  071%=      5-min Rain = 0
KTH1 130852Z 15009KT 23/18 A2991 RMK A01 T02340179  RH  071%=      5-min Rain = 0
KTH1 130853Z 16007KT 23/18 A2991 RMK A01 T02330179  RH  071%=      5-min Rain = 0
KTH1 130854Z 16008KT 23/18 A2992 RMK A01 T02330179  RH  072%=      5-min Rain = 0
KTH1 130855Z 16008KT 23/18 A2992 RMK A01 T02330180  RH  072%=      5-min Rain = 0
KTH1 130856Z 15007KT 23/18 A2992 RMK A01 T02330179  RH  072%=      5-min Rain = 0
KTH1 130857Z 16005KT 23/18 A2992 RMK A01 T02330180  RH  072%=      5-min Rain = 0
KTH1 130858Z 16005KT 23/18 A2992 RMK A01 T02330180  RH  072%=      5-min Rain = 0
KTH1 130859Z 17005KT 23/18 A2992 RMK A01 T02330180  RH  072%=      5-min Rain = 0
KTH1 130900Z 16006KT 23/18 A2992 RMK A01 T02320180  RH  073%=      5-min Rain = 0
KTH1 130901Z 16007KT 23/18 A2992 RMK A01 T02320180  RH  073%=      5-min Rain = 0
KTH1 130902Z 17007KT 23/18 A2992 RMK A01 T02310180  RH  073%=      5-min Rain = 0
KTH1 130903Z 16006KT 23/18 A2992 RMK A01 T02310180  RH  073%=      5-min Rain = 0
KTH1 130904Z 17007KT 23/18 A2992 RMK A01 T02320180  RH  073%=      5-min Rain = 0
KTH1 130905Z 16005KT 23/18 A2992 RMK A01 T02320180  RH  073%=      5-min Rain = 0
KTH1 130906Z 16006KT 23/18 A2992 RMK A01 T02320180  RH  073%=      5-min Rain = 0
KTH1 130907Z 17008KT 23/18 A2992 RMK A01 T02320180  RH  073%=      5-min Rain = 0
KTH1 130908Z 16006KT 23/18 A2992 RMK A01 T02320181  RH  073%=      5-min Rain = 0
KTH1 130909Z 16005KT 23/18 A2992 RMK A01 T02310181  RH  073%=      5-min Rain = 0
KTH1 130910Z 16006KT 23/18 A2992 RMK A01 T02310181  RH  073%=      5-min Rain = 0
KTH1 130911Z 17005KT 23/18 A2992 RMK A01 T02310181  RH  073%=      5-min Rain = 0
KTH1 130912Z 17007KT 23/18 A2992 RMK A01 T02310181  RH  073%=      5-min Rain = 0
KTH1 130913Z 17007KT 23/18 A2993 RMK A01 T02310181  RH  073%=      5-min Rain = 0
KTH1 130914Z 18006KT 23/18 A2993 RMK A01 T02310180  RH  073%=      5-min Rain = 0
KTH1 130915Z 18006KT 23/18 A2993 RMK A01 T02310181  RH  073%=      5-min Rain = 0
KTH1 130916Z 18005KT 23/18 A2993 RMK A01 T02310181  RH  073%=      5-min Rain = 0
KTH1 130917Z 17004KT 23/18 A2993 RMK A01 T02310181  RH  074%=      5-min Rain = 0
KTH1 130918Z 17004KT 23/18 A2993 RMK A01 T02300181  RH  074%=      5-min Rain = 0
KTH1 130919Z 18006KT 23/18 A2993 RMK A01 T02300181  RH  074%=      5-min Rain = 0
KTH1 130920Z 18005KT 23/18 A2993 RMK A01 T02300181  RH  074%=      5-min Rain = 0
KTH1 130921Z 18005KT 23/18 A2993 RMK A01 T02300181  RH  074%=      5-min Rain = 0
KTH1 130922Z 18005KT 23/18 A2993 RMK A01 T02290181  RH  074%=      5-min Rain = 0
KTH1 130923Z 18006KT 23/18 A2993 RMK A01 T02290181  RH  074%=      5-min Rain = 0
KTH1 130924Z 18004KT 23/18 A2993 RMK A01 T02290182  RH  074%=      5-min Rain = 0
KTH1 130925Z 18006KT 23/18 A2993 RMK A01 T02290182  RH  075%=      5-min Rain = 0
KTH1 130926Z 20005KT 23/18 A2993 RMK A01 T02290182  RH  075%=      5-min Rain = 0
KTH1 130927Z 18006KT 23/18 A2993 RMK A01 T02290182  RH  075%=      5-min Rain = 0
KTH1 130928Z 19004KT 23/18 A2993 RMK A01 T02280182  RH  075%=      5-min Rain = 0
KTH1 130929Z 18006KT 23/18 A2993 RMK A01 T02280182  RH  075%=      5-min Rain = 0
KTH1 130930Z 18005KT 23/18 A2993 RMK A01 T02280182  RH  075%=      5-min Rain = 0
KTH1 130931Z 18006KT 23/18 A2993 RMK A01 T02280182  RH  075%=      5-min Rain = 0
KTH1 130932Z 18007KT 23/18 A2993 RMK A01 T02280182  RH  075%=      5-min Rain = 0
KTH1 130933Z 17006KT 23/18 A2993 RMK A01 T02280182  RH  075%=      5-min Rain = 0
KTH1 130934Z 18006KT 23/18 A2993 RMK A01 T02280182  RH  075%=      5-min Rain = 0
KTH1 130935Z 18005KT 23/18 A2993 RMK A01 T02280182  RH  075%=      5-min Rain = 0
KTH1 130936Z 17006KT 23/18 A2993 RMK A01 T02290182  RH  075%=      5-min Rain = 0
KTH1 130937Z 17007KT 23/18 A2993 RMK A01 T02280182  RH  075%=      5-min Rain = 0
KTH1 130938Z 17005KT 23/18 A2993 RMK A01 T02280182  RH  075%=      5-min Rain = 0
KTH1 130939Z 18005KT 23/18 A2993 RMK A01 T02290182  RH  075%=      5-min Rain = 0
KTH1 130940Z 18006KT 23/18 A2993 RMK A01 T02280182  RH  075%=      5-min Rain = 0
KTH1 130941Z 18007KT 23/18 A2993 RMK A01 T02280183  RH  075%=      5-min Rain = 0
KTH1 130942Z 17006KT 23/18 A2993 RMK A01 T02280182  RH  075%=      5-min Rain = 0
KTH1 130943Z 17007KT 23/18 A2993 RMK A01 T02280182  RH  075%=      5-min Rain = 0
KTH1 130944Z 17005KT 23/18 A2993 RMK A01 T02280182  RH  075%=      5-min Rain = 0
KTH1 130945Z 18005KT 23/18 A2993 RMK A01 T02280183  RH  075%=      5-min Rain = 0
KTH1 130946Z 18006KT 23/18 A2993 RMK A01 T02280183  RH  076%=      5-min Rain = 0
KTH1 130947Z 17005KT 23/18 A2993 RMK A01 T02280183  RH  076%=      5-min Rain = 0
KTH1 130948Z 18007KT 23/18 A2993 RMK A01 T02280183  RH  076%=      5-min Rain = 0
KTH1 130949Z 16006G11KT 23/18 A2993 RMK A01 T02280183  RH  076%=      5-min Rain = 0
KTH1 130950Z 18008KT 23/18 A2993 RMK A01 T02280183  RH  076%=      5-min Rain = 0
KTH1 130951Z 17006KT 23/18 A2993 RMK A01 T02280182  RH  075%=      5-min Rain = 0
KTH1 130952Z 17007KT 23/18 A2993 RMK A01 T02280183  RH  075%=      5-min Rain = 0
KTH1 130953Z 17007KT 23/18 A2993 RMK A01 T02290183  RH  075%=      5-min Rain = 0
KTH1 130954Z 17007KT 23/18 A2993 RMK A01 T02280183  RH  076%=      5-min Rain = 0
KTH1 130955Z 16006KT 23/18 A2993 RMK A01 T02290183  RH  076%=      5-min Rain = 0
KTH1 130956Z 16005KT 23/18 A2993 RMK A01 T02280183  RH  076%=      5-min Rain = 0
KTH1 130957Z 17008KT 23/18 A2993 RMK A01 T02280183  RH  076%=      5-min Rain = 0
KTH1 130958Z 16007KT 23/18 A2993 RMK A01 T02280183  RH  076%=      5-min Rain = 0
KTH1 130959Z 16009KT 23/18 A2993 RMK A01 T02280183  RH  076%=      5-min Rain = 0
KTH1 131000Z 16007KT 23/18 A2993 RMK A01 T02280183  RH  076%=      5-min Rain = 0
KTH1 131001Z 16008KT 23/18 A2993 RMK A01 T02280183  RH  076%=      5-min Rain = 0
KTH1 131002Z 16011KT 23/18 A2993 RMK A01 T02280183  RH  076%=      5-min Rain = 0
KTH1 131003Z 16008KT 23/18 A2993 RMK A01 T02290183  RH  076%=      5-min Rain = 0
KTH1 131004Z 16008G13KT 23/18 A2993 RMK A01 T02280184  RH  076%=      5-min Rain = 0
KTH1 131005Z 15008KT 23/18 A2992 RMK A01 T02290184  RH  076%=      5-min Rain = 0
KTH1 131006Z 16008KT 23/18 A2992 RMK A01 T02280184  RH  076%=      5-min Rain = 0
KTH1 131007Z 16007KT 23/18 A2993 RMK A01 T02280184  RH  076%=      5-min Rain = 0
KTH1 131008Z 16008KT 23/18 A2993 RMK A01 T02280184  RH  076%=      5-min Rain = 0
KTH1 131009Z 16009KT 23/18 A2993 RMK A01 T02280184  RH  076%=      5-min Rain = 0
KTH1 131010Z 17007KT 23/18 A2993 RMK A01 T02280184  RH  076%=      5-min Rain = 0
KTH1 131011Z 16008KT 23/18 A2993 RMK A01 T02280183  RH  076%=      5-min Rain = 0
KTH1 131012Z 16008KT 23/18 A2993 RMK A01 T02280183  RH  076%=      5-min Rain = 0
KTH1 131013Z 16011KT 23/18 A2993 RMK A01 T02280183  RH  076%=      5-min Rain = 0
KTH1 131014Z 16009G14KT 23/18 A2993 RMK A01 T02280183  RH  076%=      5-min Rain = 0
KTH1 131015Z 17008KT 23/18 A2993 RMK A01 T02290183  RH  076%=      5-min Rain = 0
KTH1 131016Z 17006KT 23/18 A2993 RMK A01 T02290184  RH  076%=      5-min Rain = 0
KTH1 131017Z 16006KT 23/18 A2993 RMK A01 T02290184  RH  076%=      5-min Rain = 0
KTH1 131018Z 16008KT 23/18 A2993 RMK A01 T02290184  RH  076%=      5-min Rain = 0
KTH1 131019Z 16007G12KT 23/18 A2993 RMK A01 T02280184  RH  076%=      5-min Rain = 0
KTH1 131020Z 16008KT 23/18 A2993 RMK A01 T02280184  RH  076%=      5-min Rain = 0
KTH1 131021Z 16007G13KT 23/18 A2993 RMK A01 T02290184  RH  076%=      5-min Rain = 0
KTH1 131022Z 16009KT 23/18 A2993 RMK A01 T02280183  RH  076%=      5-min Rain = 0
KTH1 131023Z 16009KT 23/18 A2993 RMK A01 T02290184  RH  076%=      5-min Rain = 0
KTH1 131024Z 17008KT 23/18 A2993 RMK A01 T02290184  RH  076%=      5-min Rain = 0
KTH1 131025Z 17007KT 23/18 A2993 RMK A01 T02290184  RH  076%=      5-min Rain = 0
KTH1 131026Z 15008KT 23/18 A2993 RMK A01 T02290184  RH  076%=      5-min Rain = 0
KTH1 131027Z 16007KT 23/18 A2993 RMK A01 T02290184  RH  076%=      5-min Rain = 0
KTH1 131028Z 16008KT 23/18 A2993 RMK A01 T02290184  RH  076%=      5-min Rain = 0
KTH1 131029Z 17008KT 23/18 A2993 RMK A01 T02290184  RH  076%=      5-min Rain = 0
KTH1 131030Z 16007KT 23/18 A2993 RMK A01 T02290184  RH  076%=      5-min Rain = 0
KTH1 131031Z 16007G12KT 23/18 A2993 RMK A01 T02290184  RH  076%=      5-min Rain = 0
KTH1 131032Z 17008KT 23/18 A2994 RMK A01 T02290184  RH  076%=      5-min Rain = 0
KTH1 131033Z 17008G13KT 23/18 A2994 RMK A01 T02290184  RH  076%=      5-min Rain = 0
KTH1 131034Z 17009KT 23/18 A2993 RMK A01 T02290184  RH  076%=      5-min Rain = 0
KTH1 131035Z 16010KT 23/18 A2993 RMK A01 T02290184  RH  076%=      5-min Rain = 0
KTH1 131036Z 16009KT 23/18 A2993 RMK A01 T02290184  RH  076%=      5-min Rain = 0
KTH1 131037Z 16011KT 23/18 A2993 RMK A01 T02290184  RH  076%=      5-min Rain = 0
KTH1 131038Z 16009KT 23/18 A2993 RMK A01 T02290184  RH  076%=      5-min Rain = 0
KTH1 131039Z 17009KT 23/18 A2993 RMK A01 T02290184  RH  076%=      5-min Rain = 0
KTH1 131040Z 16008G14KT 23/19 A2993 RMK A01 T02290185  RH  076%=      5-min Rain = 0
KTH1 131041Z 16009KT 23/18 A2993 RMK A01 T02290184  RH  076%=      5-min Rain = 0
KTH1 131042Z 16007G12KT 23/18 A2994 RMK A01 T02290184  RH  076%=      5-min Rain = 0
KTH1 131043Z 16009KT 23/18 A2994 RMK A01 T02290184  RH  076%=      5-min Rain = 0
KTH1 131044Z 17010KT 23/18 A2994 RMK A01 T02290184  RH  076%=      5-min Rain = 0
KTH1 131045Z 18007G12KT 23/18 A2994 RMK A01 T02290184  RH  076%=      5-min Rain = 0
KTH1 131046Z 17008KT 23/18 A2994 RMK A01 T02290184  RH  076%=      5-min Rain = 0
KTH1 131047Z 17007KT 23/18 A2994 RMK A01 T02280184  RH  076%=      5-min Rain = 0
KTH1 131048Z 17007KT 23/18 A2994 RMK A01 T02280184  RH  076%=      5-min Rain = 0
KTH1 131049Z 17006KT 23/18 A2994 RMK A01 T02280184  RH  076%=      5-min Rain = 0
KTH1 131050Z 17009KT 23/18 A2994 RMK A01 T02280184  RH  076%=      5-min Rain = 0
KTH1 131051Z 17007KT 23/18 A2994 RMK A01 T02280184  RH  076%=      5-min Rain = 0
KTH1 131052Z 17007KT 23/18 A2994 RMK A01 T02280184  RH  076%=      5-min Rain = 0
KTH1 131053Z 16006KT 23/18 A2994 RMK A01 T02280184  RH  076%=      5-min Rain = 0
KTH1 131054Z 16006KT 23/18 A2994 RMK A01 T02280184  RH  076%=      5-min Rain = 0
KTH1 131055Z 17006KT 23/18 A2994 RMK A01 T02280184  RH  076%=      5-min Rain = 0
KTH1 131056Z 16006KT 23/18 A2994 RMK A01 T02280184  RH  076%=      5-min Rain = 0
KTH1 131057Z 16008G14KT 23/18 A2994 RMK A01 T02270184  RH  077%=      5-min Rain = 0
KTH1 131058Z 16006KT 23/18 A2994 RMK A01 T02280184  RH  077%=      5-min Rain = 0
KTH1 131059Z 16007KT 23/18 A2994 RMK A01 T02280184  RH  077%=      5-min Rain = 0
KTH1 131100Z 15008KT 23/18 A2995 RMK A01 T02270184  RH  077%=      5-min Rain = 0
KTH1 131101Z 16006KT 23/18 A2995 RMK A01 T02270184  RH  077%=      5-min Rain = 0
KTH1 131102Z 16010KT 23/18 A2995 RMK A01 T02270184  RH  077%=      5-min Rain = 0
KTH1 131103Z 15009KT 23/18 A2995 RMK A01 T02270184  RH  077%=      5-min Rain = 0
KTH1 131104Z 15007KT 23/18 A2995 RMK A01 T02270184  RH  077%=      5-min Rain = 0
KTH1 131105Z 16006KT 23/19 A2995 RMK A01 T02270185  RH  077%=      5-min Rain = 0
KTH1 131106Z 15007KT 23/19 A2995 RMK A01 T02270185  RH  077%=      5-min Rain = 0
KTH1 131107Z 16008KT 23/19 A2995 RMK A01 T02260185  RH  077%=      5-min Rain = 0
KTH1 131108Z 16008KT 23/19 A2995 RMK A01 T02260185  RH  077%=      5-min Rain = 0
KTH1 131109Z 16006KT 23/18 A2995 RMK A01 T02260184  RH  077%=      5-min Rain = 0
KTH1 131110Z 16006KT 23/19 A2995 RMK A01 T02260185  RH  077%=      5-min Rain = 0
KTH1 131111Z 16009KT 23/18 A2995 RMK A01 T02250184  RH  078%=      5-min Rain = 0
KTH1 131112Z 16006KT 23/19 A2995 RMK A01 T02250185  RH  078%=      5-min Rain = 0
KTH1 131113Z 16008KT 23/18 A2995 RMK A01 T02250184  RH  078%=      5-min Rain = 0
KTH1 131114Z 17009KT 23/19 A2995 RMK A01 T02250185  RH  078%=      5-min Rain = 0
KTH1 131115Z 16006KT 22/18 A2995 RMK A01 T02240184  RH  078%=      5-min Rain = 0
KTH1 131116Z 15007KT 22/18 A2995 RMK A01 T02240184  RH  078%=      5-min Rain = 0
KTH1 131117Z 15008KT 22/18 A2995 RMK A01 T02240184  RH  078%=      5-min Rain = 0
KTH1 131118Z 16008G14KT 22/19 A2995 RMK A01 T02240185  RH  078%=      5-min Rain = 0
KTH1 131119Z 16008KT 22/19 A2995 RMK A01 T02240185  RH  079%=      5-min Rain = 0
KTH1 131120Z 17010KT 22/19 A2995 RMK A01 T02230185  RH  079%=      5-min Rain = 0
KTH1 131121Z 15006KT 22/19 A2995 RMK A01 T02230185  RH  079%=      5-min Rain = 0
KTH1 131122Z 16008KT 22/19 A2995 RMK A01 T02230185  RH  079%=      5-min Rain = 0
KTH1 131123Z 17009KT 22/19 A2995 RMK A01 T02230185  RH  079%=      5-min Rain = 0
KTH1 131124Z 16008KT 22/19 A2995 RMK A01 T02230185  RH  079%=      5-min Rain = 0
KTH1 131125Z 16008KT 22/19 A2995 RMK A01 T02230185  RH  079%=      5-min Rain = 0
KTH1 131126Z 16007KT 22/19 A2995 RMK A01 T02220185  RH  079%=      5-min Rain = 0
KTH1 131127Z 16010KT 22/19 A2995 RMK A01 T02220185  RH  080%=      5-min Rain = 0
KTH1 131128Z 16007G12KT 22/19 A2995 RMK A01 T02220185  RH  080%=      5-min Rain = 0
KTH1 131129Z 16010KT 22/19 A2995 RMK A01 T02220185  RH  080%=      5-min Rain = 0
KTH1 131130Z 17007KT 22/19 A2995 RMK A01 T02210185  RH  080%=      5-min Rain = 0
KTH1 131131Z 16006KT 22/19 A2995 RMK A01 T02210185  RH  080%=      5-min Rain = 0
KTH1 131132Z 16008KT 22/19 A2995 RMK A01 T02210185  RH  080%=      5-min Rain = 0
KTH1 131133Z 16007G12KT 22/19 A2995 RMK A01 T02210186  RH  080%=      5-min Rain = 0
KTH1 131134Z 17005KT 22/19 A2995 RMK A01 T02210186  RH  080%=      5-min Rain = 0
KTH1 131135Z 16005KT 22/19 A2995 RMK A01 T02210186  RH  081%=      5-min Rain = 0
KTH1 131136Z 16007KT 22/19 A2995 RMK A01 T02210186  RH  081%=      5-min Rain = 0
KTH1 131137Z 17008KT 22/19 A2995 RMK A01 T02200186  RH  081%=      5-min Rain = 0
KTH1 131138Z 16007KT 22/19 A2995 RMK A01 T02200186  RH  081%=      5-min Rain = 0
KTH1 131139Z 16007KT 22/19 A2995 RMK A01 T02200186  RH  081%=      5-min Rain = 0
KTH1 131140Z 16007KT 22/19 A2995 RMK A01 T02200186  RH  081%=      5-min Rain = 0
KTH1 131141Z 17006KT 22/19 A2995 RMK A01 T02200186  RH  081%=      5-min Rain = 0
KTH1 131142Z 16004KT 22/19 A2995 RMK A01 T02200186  RH  081%=      5-min Rain = 0
KTH1 131143Z 16006KT 22/19 A2995 RMK A01 T02200186  RH  081%=      5-min Rain = 0
KTH1 131144Z 17007KT 22/19 A2995 RMK A01 T02200186  RH  081%=      5-min Rain = 0
KTH1 131145Z 16007KT 22/19 A2995 RMK A01 T02200187  RH  081%=      5-min Rain = 0
KTH1 131146Z 16005KT 22/19 A2995 RMK A01 T02190186  RH  082%=      5-min Rain = 0
KTH1 131147Z 16007KT 22/19 A2996 RMK A01 T02200187  RH  082%=      5-min Rain = 0
KTH1 131148Z 16007KT 22/19 A2996 RMK A01 T02200187  RH  082%=      5-min Rain = 0
KTH1 131149Z 17006KT 22/19 A2996 RMK A01 T02200187  RH  082%=      5-min Rain = 0
KTH1 131150Z 17007KT 22/19 A2996 RMK A01 T02200187  RH  082%=      5-min Rain = 0
KTH1 131151Z 17009KT 22/19 A2996 RMK A01 T02200187  RH  082%=      5-min Rain = 0
KTH1 131152Z 17010KT 22/19 A2996 RMK A01 T02200187  RH  082%=      5-min Rain = 0
KTH1 131153Z 16006KT 22/19 A2996 RMK A01 T02200187  RH  082%=      5-min Rain = 0
KTH1 131154Z 16004KT 22/19 A2996 RMK A01 T02190187  RH  082%=      5-min Rain = 0
KTH1 131155Z 16006KT 22/19 A2996 RMK A01 T02200187  RH  082%=      5-min Rain = 0
KTH1 131156Z 16006KT 22/19 A2996 RMK A01 T02200188  RH  082%=      5-min Rain = 0
KTH1 131157Z 16004KT 22/19 A2996 RMK A01 T02190188  RH  082%=      5-min Rain = 0
KTH1 131158Z 16006KT 22/19 A2996 RMK A01 T02190188  RH  082%=      5-min Rain = 0
KTH1 131159Z 16005KT 22/19 A2996 RMK A01 T02190187  RH  082%=      5-min Rain = 0
KTH1 131200Z 17005KT 22/19 A2996 RMK A01 T02190187  RH  082%=      5-min Rain = 0
KTH1 131201Z 17006KT 22/19 A2996 RMK A01 T02190187  RH  082%=      5-min Rain = 0
KTH1 131202Z 16005KT 22/19 A2997 RMK A01 T02190188  RH  083%=      5-min Rain = 0
KTH1 131203Z 16006KT 22/19 A2997 RMK A01 T02190188  RH  083%=      5-min Rain = 0
KTH1 131204Z 17007KT 22/19 A2997 RMK A01 T02190188  RH  083%=      5-min Rain = 0
KTH1 131205Z 17006G11KT 22/19 A2997 RMK A01 T02190188  RH  083%=      5-min Rain = 0
KTH1 131206Z 16006G11KT 22/19 A2997 RMK A01 T02190188  RH  083%=      5-min Rain = 0
KTH1 131207Z 16007KT 22/19 A2997 RMK A01 T02190188  RH  083%=      5-min Rain = 0
KTH1 131208Z 17010KT 22/19 A2997 RMK A01 T02190188  RH  083%=      5-min Rain = 0
KTH1 131209Z 18007KT 22/19 A2997 RMK A01 T02190188  RH  082%=      5-min Rain = 0
KTH1 131210Z 17008KT 22/19 A2997 RMK A01 T02190188  RH  082%=      5-min Rain = 0
KTH1 131211Z 17005KT 22/19 A2997 RMK A01 T02200188  RH  082%=      5-min Rain = 0
KTH1 131212Z 16007KT 22/19 A2997 RMK A01 T02200188  RH  082%=      5-min Rain = 0
KTH1 131213Z 16006KT 22/19 A2997 RMK A01 T02200189  RH  082%=      5-min Rain = 0
KTH1 131214Z 16007KT 22/19 A2997 RMK A01 T02200189  RH  082%=      5-min Rain = 0
KTH1 131215Z 17007KT 22/19 A2997 RMK A01 T02200189  RH  083%=      5-min Rain = 0
KTH1 131216Z 16005KT 22/19 A2997 RMK A01 T02200189  RH  083%=      5-min Rain = 0
KTH1 131217Z 16005KT 22/19 A2997 RMK A01 T02200189  RH  083%=      5-min Rain = 0
KTH1 131218Z 15005KT 22/19 A2997 RMK A01 T02200189  RH  083%=      5-min Rain = 0
KTH1 131219Z 16006KT 22/19 A2997 RMK A01 T02200189  RH  083%=      5-min Rain = 0
KTH1 131220Z 16007KT 22/19 A2997 RMK A01 T02200189  RH  083%=      5-min Rain = 0
KTH1 131221Z 17006KT 22/19 A2997 RMK A01 T02210189  RH  082%=      5-min Rain = 0
KTH1 131222Z 17008KT 22/19 A2997 RMK A01 T02210190  RH  082%=      5-min Rain = 0
KTH1 131223Z 16007KT 22/19 A2997 RMK A01 T02210189  RH  082%=      5-min Rain = 0
KTH1 131224Z 18007KT 22/19 A2997 RMK A01 T02220189  RH  082%=      5-min Rain = 0
KTH1 131225Z 17006KT 22/19 A2997 RMK A01 T02220190  RH  082%=      5-min Rain = 0
KTH1 131226Z 18005KT 22/19 A2997 RMK A01 T02230190  RH  082%=      5-min Rain = 0
KTH1 131227Z 17005KT 22/19 A2997 RMK A01 T02230191  RH  082%=      5-min Rain = 0
KTH1 131228Z 17008KT 22/19 A2997 RMK A01 T02240190  RH  081%=      5-min Rain = 0
KTH1 131229Z 16008KT 23/19 A2997 RMK A01 T02250191  RH  081%=      5-min Rain = 0
KTH1 131230Z 16007KT 23/19 A2997 RMK A01 T02250191  RH  081%=      5-min Rain = 0
KTH1 131231Z 17007KT 23/19 A2997 RMK A01 T02250191  RH  081%=      5-min Rain = 0
KTH1 131232Z 18006KT 23/19 A2997 RMK A01 T02260191  RH  081%=      5-min Rain = 0
KTH1 131233Z 16005KT 23/19 A2997 RMK A01 T02260191  RH  081%=      5-min Rain = 0
KTH1 131234Z 16008KT 23/19 A2997 RMK A01 T02260191  RH  081%=      5-min Rain = 0
KTH1 131235Z 16011KT 23/19 A2997 RMK A01 T02260191  RH  081%=      5-min Rain = 0
KTH1 131236Z 17009KT 23/19 A2998 RMK A01 T02260191  RH  080%=      5-min Rain = 0
KTH1 131237Z 17009KT 23/19 A2998 RMK A01 T02260191  RH  080%=      5-min Rain = 0
KTH1 131238Z 18008KT 23/19 A2998 RMK A01 T02260191  RH  080%=      5-min Rain = 0
KTH1 131239Z 17006G11KT 23/19 A2998 RMK A01 T02270191  RH  080%=      5-min Rain = 0
KTH1 131240Z 18008G13KT 23/19 A2998 RMK A01 T02270192  RH  080%=      5-min Rain = 0
KTH1 131241Z 18007KT 23/19 A2998 RMK A01 T02280192  RH  080%=      5-min Rain = 0
KTH1 131242Z 17010G15KT 23/19 A2998 RMK A01 T02280192  RH  080%=      5-min Rain = 0
KTH1 131243Z 17011G16KT 23/19 A2998 RMK A01 T02280191  RH  079%=      5-min Rain = 0
KTH1 131244Z 18010KT 23/19 A2998 RMK A01 T02280190  RH  079%=      5-min Rain = 0
KTH1 131245Z 18009KT 23/19 A2998 RMK A01 T02280191  RH  080%=      5-min Rain = 0
KTH1 131246Z 17008G14KT 23/19 A2998 RMK A01 T02280191  RH  080%=      5-min Rain = 0
KTH1 131247Z 18006KT 23/19 A2998 RMK A01 T02280192  RH  080%=      5-min Rain = 0
KTH1 131248Z 17010KT 23/19 A2998 RMK A01 T02280192  RH  080%=      5-min Rain = 0
KTH1 131249Z 18009G14KT 23/19 A2998 RMK A01 T02290192  RH  080%=      5-min Rain = 0
KTH1 131250Z 18008KT 23/19 A2998 RMK A01 T02290191  RH  079%=      5-min Rain = 0
KTH1 131251Z 17007G12KT 23/19 A2998 RMK A01 T02290192  RH  080%=      5-min Rain = 0
KTH1 131252Z 18010G16KT 23/19 A2998 RMK A01 T02290192  RH  080%=      5-min Rain = 0
KTH1 131253Z 16009KT 23/19 A2998 RMK A01 T02290192  RH  079%=      5-min Rain = 0
KTH1 131254Z 17009KT 23/19 A2998 RMK A01 T02290192  RH  080%=      5-min Rain = 0
KTH1 131255Z 18009G14KT 23/19 A2998 RMK A01 T02290192  RH  080%=      5-min Rain = 0
KTH1 131256Z 16009KT 23/19 A2998 RMK A01 T02290192  RH  080%=      5-min Rain = 0
KTH1 131257Z 17007KT 23/19 A2998 RMK A01 T02290192  RH  080%=      5-min Rain = 0
KTH1 131258Z 17006KT 23/19 A2998 RMK A01 T02290192  RH  080%=      5-min Rain = 0
KTH1 131259Z 17009KT 23/19 A2998 RMK A01 T02300192  RH  079%=      5-min Rain = 0
KTH1 131300Z 17008KT 23/19 A2998 RMK A01 T02300192  RH  079%=      5-min Rain = 0
KTH1 131301Z 17011G16KT 23/19 A2998 RMK A01 T02310192  RH  079%=      5-min Rain = 0
KTH1 131302Z 17011G16KT 23/19 A2998 RMK A01 T02320192  RH  078%=      5-min Rain = 0
KTH1 131303Z 17011KT 23/19 A2998 RMK A01 T02310192  RH  078%=      5-min Rain = 0
KTH1 131304Z 17008KT 23/19 A2998 RMK A01 T02320193  RH  079%=      5-min Rain = 0
KTH1 131305Z 18011KT 23/19 A2998 RMK A01 T02320193  RH  079%=      5-min Rain = 0
KTH1 131306Z 17008KT 23/19 A2998 RMK A01 T02320193  RH  079%=      5-min Rain = 0
KTH1 131307Z 18008KT 23/19 A2998 RMK A01 T02310193  RH  079%=      5-min Rain = 0
KTH1 131308Z 16006G12KT 23/19 A2998 RMK A01 T02310193  RH  079%=      5-min Rain = 0
KTH1 131309Z 16011KT 23/19 A2998 RMK A01 T02310193  RH  079%=      5-min Rain = 0
KTH1 131310Z 17007KT 23/19 A2998 RMK A01 T02310192  RH  079%=      5-min Rain = 0
KTH1 131311Z 17007KT 23/19 A2998 RMK A01 T02300193  RH  079%=      5-min Rain = 0
KTH1 131312Z 17009KT 23/19 A2998 RMK A01 T02300193  RH  080%=      5-min Rain = 0
KTH1 131313Z 17007KT 23/19 A2998 RMK A01 T02290192  RH  080%=      5-min Rain = 0
KTH1 131314Z 17008KT 23/19 A2998 RMK A01 T02290193  RH  080%=      5-min Rain = 0
KTH1 131315Z 17012KT 23/19 A2998 RMK A01 T02290192  RH  080%=      5-min Rain = 0
KTH1 131316Z 16009KT 23/19 A2998 RMK A01 T02280191  RH  080%=      5-min Rain = 0
KTH1 131317Z 18008G13KT 23/19 A2998 RMK A01 T02280192  RH  080%=      5-min Rain = 0
KTH1 131318Z 17008KT 23/19 A2998 RMK A01 T02280192  RH  080%=      5-min Rain = 0
KTH1 131319Z 17007KT 23/19 A2998 RMK A01 T02280192  RH  080%=      5-min Rain = 0
KTH1 131320Z 18006KT 23/19 A2998 RMK A01 T02270192  RH  081%=      5-min Rain = 0
KTH1 131321Z 17008KT 23/19 A2998 RMK A01 T02270192  RH  081%=      5-min Rain = 0
KTH1 131322Z 17011KT 23/19 A2998 RMK A01 T02270192  RH  080%=      5-min Rain = 0
KTH1 131323Z 17008KT 23/19 A2998 RMK A01 T02280191  RH  080%=      5-min Rain = 0
KTH1 131324Z 18006KT 23/19 A2998 RMK A01 T02280192  RH  080%=      5-min Rain = 0
KTH1 131325Z 17007G12KT 23/19 A2998 RMK A01 T02290192  RH  080%=      5-min Rain = 0
KTH1 131326Z 18011G16KT 23/19 A2998 RMK A01 T02300193  RH  080%=      5-min Rain = 0
KTH1 131327Z 18009KT 23/19 A2998 RMK A01 T02290192  RH  079%=      5-min Rain = 0
KTH1 131328Z 17010KT 23/19 A2998 RMK A01 T02290192  RH  079%=      5-min Rain = 0
KTH1 131329Z 17011KT 23/19 A2998 RMK A01 T02280192  RH  080%=      5-min Rain = 0
KTH1 131330Z 17011G16KT 23/19 A2998 RMK A01 T02280191  RH  080%=      5-min Rain = 0
KTH1 131331Z 17011KT 23/19 A2998 RMK A01 T02270191  RH  080%=      5-min Rain = 0
KTH1 131332Z 18010KT 23/19 A2998 RMK A01 T02270191  RH  080%=      5-min Rain = 0
KTH1 131333Z 17010G16KT 23/19 A2998 RMK A01 T02260191  RH  080%=      5-min Rain = 0
KTH1 131334Z 16010G15KT 23/19 A2998 RMK A01 T02260191  RH  080%=      5-min Rain = 0
KTH1 131335Z 17011KT 23/19 A2998 RMK A01 T02260191  RH  081%=      5-min Rain = 0
KTH1 131336Z 17008G13KT 23/19 A2998 RMK A01 T02260191  RH  080%=      5-min Rain = 0
KTH1 131337Z 18008KT 23/19 A2998 RMK A01 T02260191  RH  081%=      5-min Rain = 0
KTH1 131338Z 17010KT 23/19 A2998 RMK A01 T02260192  RH  081%=      5-min Rain = 0
KTH1 131339Z 17010KT 23/19 A2998 RMK A01 T02260191  RH  081%=      5-min Rain = 0
KTH1 131340Z 17013KT 23/19 A2998 RMK A01 T02260191  RH  081%=      5-min Rain = 0
KTH1 131341Z 17009KT 23/19 A2998 RMK A01 T02260191  RH  081%=      5-min Rain = 0
KTH1 131342Z 18008KT 23/19 A2998 RMK A01 T02260191  RH  081%=      5-min Rain = 0
KTH1 131343Z 16009KT 23/19 A2998 RMK A01 T02260191  RH  081%=      5-min Rain = 0
KTH1 131344Z 17008KT 23/19 A2998 RMK A01 T02260191  RH  081%=      5-min Rain = 0
KTH1 131345Z 18010KT 23/19 A2998 RMK A01 T02260191  RH  081%=      5-min Rain = 0
KTH1 131346Z 17011KT 23/19 A2998 RMK A01 T02260191  RH  080%=      5-min Rain = 0
KTH1 131347Z 17010KT 23/19 A2998 RMK A01 T02260190  RH  080%=      5-min Rain = 0
KTH1 131348Z 17007KT 23/19 A2998 RMK A01 T02270191  RH  080%=      5-min Rain = 0
KTH1 131349Z 17012KT 23/19 A2998 RMK A01 T02270191  RH  080%=      5-min Rain = 0
KTH1 131350Z 17011G17KT 23/19 A2998 RMK A01 T02270191  RH  080%=      5-min Rain = 0
KTH1 131351Z 17013KT 23/19 A2998 RMK A01 T02280191  RH  080%=      5-min Rain = 0
KTH1 131352Z 16011G16KT 23/19 A2998 RMK A01 T02290191  RH  079%=      5-min Rain = 0
KTH1 131353Z 17007G12KT 23/19 A2998 RMK A01 T02310193  RH  079%=      5-min Rain = 0
KTH1 131354Z 17012G19KT 23/19 A2998 RMK A01 T02330193  RH  078%=      5-min Rain = 0
KTH1 131355Z 16012KT 23/19 A2998 RMK A01 T02340192  RH  078%=      5-min Rain = 0
KTH1 131356Z 16012KT 24/19 A2998 RMK A01 T02360193  RH  077%=      5-min Rain = 0
KTH1 131357Z 16010KT 24/20 A2998 RMK A01 T02370195  RH  077%=      5-min Rain = 0
KTH1 131358Z 17013KT 24/19 A2998 RMK A01 T02380194  RH  076%=      5-min Rain = 0
KTH1 131359Z 17012KT 24/19 A2998 RMK A01 T02390194  RH  076%=      5-min Rain = 0
KTH1 131400Z 17014G21KT 24/19 A2998 RMK A01 T02380193  RH  076%=      5-min Rain = 0
KTH1 131401Z 18014KT 24/19 A2998 RMK A01 T02370192  RH  076%=      5-min Rain = 0
KTH1 131402Z 17007KT 24/19 A2998 RMK A01 T02360193  RH  077%=      5-min Rain = 0
KTH1 131403Z 16010G15KT 24/19 A2998 RMK A01 T02360194  RH  077%=      5-min Rain = 0
KTH1 131404Z 17011KT 24/19 A2998 RMK A01 T02370194  RH  077%=      5-min Rain = 0
KTH1 131405Z 16008KT 24/20 A2998 RMK A01 T02380195  RH  076%=      5-min Rain = 0
KTH1 131406Z 16009KT 24/20 A2998 RMK A01 T02400195  RH  076%=      5-min Rain = 0
KTH1 131407Z 18010KT 24/20 A2998 RMK A01 T02410195  RH  075%=      5-min Rain = 0
KTH1 131408Z 17010KT 24/20 A2998 RMK A01 T02410195  RH  075%=      5-min Rain = 0
KTH1 131409Z 16011KT 24/20 A2998 RMK A01 T02420195  RH  075%=      5-min Rain = 0
KTH1 131410Z 17011G16KT 24/20 A2998 RMK A01 T02420196  RH  075%=      5-min Rain = 0
KTH1 131411Z 17012KT 24/19 A2998 RMK A01 T02430194  RH  074%=      5-min Rain = 0
KTH1 131412Z 16007G12KT 24/20 A2998 RMK A01 T02420196  RH  075%=      5-min Rain = 0
KTH1 131413Z 17006G12KT 24/20 A2998 RMK A01 T02420197  RH  076%=      5-min Rain = 0
KTH1 131414Z 16012KT 24/20 A2998 RMK A01 T02420197  RH  076%=      5-min Rain = 0
KTH1 131415Z 17011KT 24/20 A2998 RMK A01 T02430196  RH  075%=      5-min Rain = 0
KTH1 131416Z 17008G14KT 24/20 A2998 RMK A01 T02420196  RH  075%=      5-min Rain = 0
KTH1 131417Z 17007KT 24/20 A2998 RMK A01 T02420197  RH  076%=      5-min Rain = 0
KTH1 131418Z 16009KT 24/20 A2998 RMK A01 T02420197  RH  076%=      5-min Rain = 0
KTH1 131419Z 17008KT 24/20 A2998 RMK A01 T02420197  RH  076%=      5-min Rain = 0
KTH1 131420Z 17010KT 24/20 A2998 RMK A01 T02420196  RH  076%=      5-min Rain = 0
KTH1 131421Z 18008KT 24/20 A2998 RMK A01 T02420196  RH  076%=      5-min Rain = 0
KTH1 131422Z 17008G13KT 24/20 A2998 RMK A01 T02420197  RH  076%=      5-min Rain = 0
KTH1 131423Z 17010KT 24/20 A2998 RMK A01 T02430197  RH  076%=      5-min Rain = 0
KTH1 131424Z 17009KT 24/20 A2998 RMK A01 T02430196  RH  075%=      5-min Rain = 0
KTH1 131425Z 17007KT 24/20 A2998 RMK A01 T02440197  RH  075%=      5-min Rain = 0
KTH1 131426Z 16012KT 25/20 A2998 RMK A01 T02450197  RH  075%=      5-min Rain = 0
KTH1 131427Z 17011KT 25/20 A2998 RMK A01 T02450197  RH  074%=      5-min Rain = 0
KTH1 131428Z 17012KT 25/20 A2998 RMK A01 T02460198  RH  075%=      5-min Rain = 0
KTH1 131429Z 17012G17KT 25/20 A2998 RMK A01 T02450196  RH  074%=      5-min Rain = 0
KTH1 131430Z 17008KT 25/20 A2998 RMK A01 T02450196  RH  074%=      5-min Rain = 0
KTH1 131431Z 16007KT 25/20 A2998 RMK A01 T02450197  RH  075%=      5-min Rain = 0
KTH1 131432Z 16009KT 25/20 A2998 RMK A01 T02460197  RH  074%=      5-min Rain = 0
KTH1 131433Z 16012G17KT 25/20 A2998 RMK A01 T02460197  RH  074%=      5-min Rain = 0
KTH1 131434Z 16012KT 25/20 A2998 RMK A01 T02460196  RH  074%=      5-min Rain = 0
KTH1 131435Z 16013KT 24/20 A2998 RMK A01 T02440195  RH  074%=      5-min Rain = 0
KTH1 131436Z 17010KT 24/20 A2998 RMK A01 T02430195  RH  074%=      5-min Rain = 0
KTH1 131437Z 17010G16KT 24/20 A2998 RMK A01 T02430196  RH  075%=      5-min Rain = 0
KTH1 131438Z 17009KT 24/20 A2998 RMK A01 T02430196  RH  075%=      5-min Rain = 0
KTH1 131439Z 17009KT 24/20 A2998 RMK A01 T02430196  RH  075%=      5-min Rain = 0
KTH1 131440Z 16010KT 24/20 A2998 RMK A01 T02430196  RH  075%=      5-min Rain = 0
KTH1 131441Z 16009KT 24/20 A2998 RMK A01 T02430197  RH  075%=      5-min Rain = 0
KTH1 131442Z 17011KT 24/20 A2998 RMK A01 T02430197  RH  075%=      5-min Rain = 0
KTH1 131443Z 16010KT 24/20 A2998 RMK A01 T02440196  RH  075%=      5-min Rain = 0
KTH1 131444Z 18014KT 24/20 A2998 RMK A01 T02440195  RH  074%=      5-min Rain = 0
KTH1 131445Z 17010G15KT 25/20 A2998 RMK A01 T02450195  RH  074%=      5-min Rain = 0
KTH1 131446Z 17011G16KT 25/20 A2998 RMK A01 T02460196  RH  074%=      5-min Rain = 0
KTH1 131447Z 17010G15KT 25/20 A2998 RMK A01 T02470197  RH  074%=      5-min Rain = 0
KTH1 131448Z 16011KT 25/20 A2998 RMK A01 T02480197  RH  074%=      5-min Rain = 0
KTH1 131449Z 17008KT 25/20 A2998 RMK A01 T02490199  RH  074%=      5-min Rain = 0
KTH1 131450Z 17011KT 25/20 A2998 RMK A01 T02490197  RH  073%=      5-min Rain = 0
KTH1 131451Z 16011G16KT 25/20 A2998 RMK A01 T02490197  RH  073%=      5-min Rain = 0
KTH1 131452Z 18013G18KT 25/20 A2998 RMK A01 T02490198  RH  073%=      5-min Rain = 0
KTH1 131453Z 17012KT 25/20 A2998 RMK A01 T02490196  RH  073%=      5-min Rain = 0
KTH1 131454Z 17009G15KT 25/20 A2998 RMK A01 T02480197  RH  073%=      5-min Rain = 0
KTH1 131455Z 17015G20KT 25/20 A2998 RMK A01 T02480196  RH  073%=      5-min Rain = 0
KTH1 131456Z 16013KT 25/20 A2998 RMK A01 T02470196  RH  073%=      5-min Rain = 0
KTH1 131457Z 16016KT 25/20 A2998 RMK A01 T02470196  RH  073%=      5-min Rain = 0
KTH1 131458Z 18010G15KT 25/20 A2998 RMK A01 T02460196  RH  073%=      5-min Rain = 0
KTH1 131459Z 17009G14KT 25/20 A2998 RMK A01 T02460196  RH  074%=      5-min Rain = 0
KTH1 131500Z 17012G17KT 25/20 A2998 RMK A01 T02460196  RH  074%=      5-min Rain = 0
KTH1 131501Z 17011KT 25/20 A2998 RMK A01 T02460195  RH  073%=      5-min Rain = 0
KTH1 131502Z 17008KT 25/20 A2998 RMK A01 T02460196  RH  074%=      5-min Rain = 0
KTH1 131503Z 17010G15KT 25/20 A2998 RMK A01 T02460197  RH  074%=      5-min Rain = 0
KTH1 131504Z 16010KT 25/20 A2998 RMK A01 T02460197  RH  074%=      5-min Rain = 0
KTH1 131505Z 16012KT 25/20 A2998 RMK A01 T02460196  RH  074%=      5-min Rain = 0
KTH1 131506Z 17012KT 25/19 A2998 RMK A01 T02450194  RH  073%=      5-min Rain = 0
KTH1 131507Z 17009KT 25/20 A2998 RMK A01 T02450195  RH  074%=      5-min Rain = 0
KTH1 131508Z 17008KT 25/20 A2998 RMK A01 T02450197  RH  074%=      5-min Rain = 0
KTH1 131509Z 17011KT 25/20 A2998 RMK A01 T02450196  RH  074%=      5-min Rain = 0
KTH1 131510Z 17010KT 25/20 A2998 RMK A01 T02450196  RH  074%=      5-min Rain = 0
KTH1 131511Z 17009KT 25/20 A2998 RMK A01 T02450197  RH  074%=      5-min Rain = 0
KTH1 131512Z 17010KT 25/20 A2998 RMK A01 T02450196  RH  074%=      5-min Rain = 0
KTH1 131513Z 17010KT 24/20 A2998 RMK A01 T02440196  RH  074%=      5-min Rain = 0
KTH1 131514Z 17007G12KT 25/20 A2998 RMK A01 T02450196  RH  074%=      5-min Rain = 0
KTH1 131515Z 16009KT 24/20 A2998 RMK A01 T02440196  RH  075%=      5-min Rain = 0
KTH1 131516Z 16007G13KT 25/20 A2998 RMK A01 T02450198  RH  075%=      5-min Rain = 0
KTH1 131517Z 17009KT 25/20 A2998 RMK A01 T02450198  RH  075%=      5-min Rain = 0
KTH1 131518Z 17008KT 25/20 A2998 RMK A01 T02460198  RH  075%=      5-min Rain = 0
KTH1 131519Z 16008KT 25/20 A2999 RMK A01 T02460198  RH  075%=      5-min Rain = 0
KTH1 131520Z 17008G13KT 25/20 A2999 RMK A01 T02460197  RH  074%=      5-min Rain = 0
KTH1 131521Z 17007KT 25/20 A2999 RMK A01 T02470198  RH  074%=      5-min Rain = 0
KTH1 131522Z 17010KT 25/20 A2999 RMK A01 T02470197  RH  074%=      5-min Rain = 0
KTH1 131523Z 18011KT 25/20 A2999 RMK A01 T02470196  RH  073%=      5-min Rain = 0
KTH1 131524Z 18008KT 25/20 A2999 RMK A01 T02470197  RH  074%=      5-min Rain = 0
KTH1 131525Z 18009KT 25/20 A2999 RMK A01 T02460198  RH  074%=      5-min Rain = 0
KTH1 131526Z 17010G16KT 25/20 A2999 RMK A01 T02460198  RH  075%=      5-min Rain = 0
KTH1 131527Z 17012KT 25/20 A2999 RMK A01 T02460197  RH  074%=      5-min Rain = 0
KTH1 131528Z 17011KT 25/20 A2999 RMK A01 T02460196  RH  074%=      5-min Rain = 0
KTH1 131529Z 19011KT 25/20 A2999 RMK A01 T02450195  RH  074%=      5-min Rain = 0
KTH1 131530Z 17009G14KT 25/20 A2999 RMK A01 T02450196  RH  074%=      5-min Rain = 0
KTH1 131531Z 17011G16KT 25/20 A2999 RMK A01 T02450196  RH  074%=      5-min Rain = 0
KTH1 131532Z 17011G16KT 25/20 A2999 RMK A01 T02450196  RH  074%=      5-min Rain = 0
KTH1 131533Z 19011KT 24/20 A2999 RMK A01 T02440196  RH  075%=      5-min Rain = 0
KTH1 131534Z 18008G13KT 25/20 A2999 RMK A01 T02450197  RH  075%=      5-min Rain = 0
KTH1 131535Z 18010G15KT 24/20 A2999 RMK A01 T02440196  RH  074%=      5-min Rain = 0
KTH1 131536Z 18009G14KT 24/20 A2999 RMK A01 T02440196  RH  075%=      5-min Rain = 0
KTH1 131537Z 18006KT 24/20 A2999 RMK A01 T02440197  RH  075%=      5-min Rain = 0
KTH1 131538Z 17008KT 24/20 A2999 RMK A01 T02440197  RH  075%=      5-min Rain = 0
KTH1 131539Z 16008KT 24/20 A2999 RMK A01 T02440197  RH  075%=      5-min Rain = 0
KTH1 131540Z 18008G15KT 25/20 A2999 RMK A01 T02450198  RH  075%=      5-min Rain = 0
KTH1 131541Z 18008KT 25/20 A2999 RMK A01 T02450198  RH  075%=      5-min Rain = 0
KTH1 131542Z 18009KT 25/20 A2999 RMK A01 T02450197  RH  075%=      5-min Rain = 0
KTH1 131543Z 18008KT 25/20 A2999 RMK A01 T02450196  RH  074%=      5-min Rain = 0
KTH1 131544Z 17009KT 25/20 A2999 RMK A01 T02450198  RH  075%=      5-min Rain = 0
KTH1 131545Z 17006KT 25/20 A2999 RMK A01 T02450198  RH  075%=      5-min Rain = 0
KTH1 131546Z 18006G11KT 25/20 A2999 RMK A01 T02460199  RH  075%=      5-min Rain = 0
KTH1 131547Z 17007KT 25/20 A2999 RMK A01 T02470199  RH  075%=      5-min Rain = 0
KTH1 131548Z 17009KT 25/20 A2999 RMK A01 T02470198  RH  074%=      5-min Rain = 0
KTH1 131549Z 17008KT 25/20 A2999 RMK A01 T02490199  RH  074%=      5-min Rain = 0
KTH1 131550Z 18010KT 25/20 A2999 RMK A01 T02500200  RH  074%=      5-min Rain = 0
KTH1 131551Z 16008KT 25/20 A2999 RMK A01 T02500200  RH  074%=      5-min Rain = 0
KTH1 131552Z 18007KT 25/20 A2999 RMK A01 T02500201  RH  074%=      5-min Rain = 0
KTH1 131553Z 18005KT 25/20 A2999 RMK A01 T02510201  RH  074%=      5-min Rain = 0
KTH1 131554Z 16006KT 25/20 A2999 RMK A01 T02520202  RH  073%=      5-min Rain = 0
KTH1 131555Z 16010KT 26/20 A2999 RMK A01 T02550203  RH  073%=      5-min Rain = 0
KTH1 131556Z 16010KT 26/20 A2999 RMK A01 T02590203  RH  071%=      5-min Rain = 0
KTH1 131557Z 15008KT 26/20 A2999 RMK A01 T02610204  RH  071%=      5-min Rain = 0
KTH1 131558Z 16008G13KT 26/21 A2999 RMK A01 T02630206  RH  071%=      5-min Rain = 0
KTH1 131559Z 18008KT 26/21 A2999 RMK A01 T02640207  RH  071%=      5-min Rain = 0
KTH1 131600Z 17009KT 27/21 A2999 RMK A01 T02650205  RH  070%=      5-min Rain = 0
KTH1 131601Z 17010G15KT 27/20 A2999 RMK A01 T02650204  RH  069%=      5-min Rain = 0
KTH1 131602Z 19011KT 26/20 A2999 RMK A01 T02640203  RH  069%=      5-min Rain = 0
KTH1 131603Z 18006G11KT 26/20 A2999 RMK A01 T02640202  RH  069%=      5-min Rain = 0
KTH1 131604Z 17006G12KT 27/21 A2999 RMK A01 T02650209  RH  071%=      5-min Rain = 0
KTH1 131605Z 16010KT 27/21 A2999 RMK A01 T02680206  RH  069%=      5-min Rain = 0
KTH1 131606Z 16010KT 27/20 A2999 RMK A01 T02690203  RH  067%=      5-min Rain = 0
KTH1 131607Z 17010G17KT 27/20 A2999 RMK A01 T02690203  RH  067%=      5-min Rain = 0
KTH1 131608Z 19011KT 27/21 A2999 RMK A01 T02690205  RH  068%=      5-min Rain = 0
KTH1 131609Z 18009KT 27/20 A2999 RMK A01 T02700204  RH  067%=      5-min Rain = 0
KTH1 131610Z 17010G15KT 27/21 A2999 RMK A01 T02710205  RH  067%=      5-min Rain = 0
KTH1 131611Z 17009KT 27/21 A2999 RMK A01 T02710206  RH  067%=      5-min Rain = 0
KTH1 131612Z 16008G13KT 27/21 A2999 RMK A01 T02720206  RH  067%=      5-min Rain = 0
KTH1 131613Z 16011KT 27/20 A2999 RMK A01 T02730204  RH  066%=      5-min Rain = 0
KTH1 131614Z 18008KT 27/20 A2999 RMK A01 T02730203  RH  066%=      5-min Rain = 0
KTH1 131615Z 19010KT 27/20 A2999 RMK A01 T02720204  RH  066%=      5-min Rain = 0
KTH1 131616Z 19008KT 27/21 A2999 RMK A01 T02720206  RH  067%=      5-min Rain = 0
KTH1 131617Z 17009G14KT 27/21 A2999 RMK A01 T02720207  RH  068%=      5-min Rain = 0
KTH1 131618Z 16009KT 27/21 A2999 RMK A01 T02730206  RH  067%=      5-min Rain = 0
KTH1 131619Z 18008KT 28/21 A2999 RMK A01 T02750210  RH  068%=      5-min Rain = 0
KTH1 131620Z 18007KT 28/21 A2999 RMK A01 T02760211  RH  068%=      5-min Rain = 0
KTH1 131621Z 17008KT 28/21 A2999 RMK A01 T02780210  RH  066%=      5-min Rain = 0
KTH1 131622Z 17007KT 28/21 A2998 RMK A01 T02790206  RH  065%=      5-min Rain = 0
KTH1 131623Z 17006KT 28/21 A2998 RMK A01 T02790210  RH  066%=      5-min Rain = 0
KTH1 131624Z 16009G15KT 28/21 A2998 RMK A01 T02790210  RH  066%=      5-min Rain = 0
KTH1 131625Z 17009G14KT 28/21 A2999 RMK A01 T02800208  RH  065%=      5-min Rain = 0
KTH1 131626Z 17009KT 28/21 A2999 RMK A01 T02800207  RH  064%=      5-min Rain = 0
KTH1 131627Z 19008KT 28/21 A2999 RMK A01 T02800208  RH  065%=      5-min Rain = 0
KTH1 131628Z 18010KT 28/21 A2999 RMK A01 T02800209  RH  065%=      5-min Rain = 0
KTH1 131629Z 19007G13KT 28/21 A2999 RMK A01 T02800207  RH  064%=      5-min Rain = 0
KTH1 131630Z 18008KT 28/21 A2999 RMK A01 T02800208  RH  065%=      5-min Rain = 0
KTH1 131631Z 17009KT 28/21 A2999 RMK A01 T02800208  RH  065%=      5-min Rain = 0
KTH1 131632Z 17010G15KT 28/21 A2999 RMK A01 T02810210  RH  065%=      5-min Rain = 0
KTH1 131633Z 18010KT 28/21 A2999 RMK A01 T02820206  RH  063%=      5-min Rain = 0
KTH1 131634Z 18008KT 28/21 A2999 RMK A01 T02810207  RH  064%=      5-min Rain = 0
KTH1 131635Z 17010KT 28/21 A2999 RMK A01 T02800208  RH  065%=      5-min Rain = 0
KTH1 131636Z 18012KT 28/21 A2999 RMK A01 T02810206  RH  064%=      5-min Rain = 0
KTH1 131637Z 18012KT 28/20 A2999 RMK A01 T02810204  RH  063%=      5-min Rain = 0
KTH1 131638Z 20010KT 28/21 A2999 RMK A01 T02800206  RH  064%=      5-min Rain = 0
KTH1 131639Z 20011KT 28/21 A2998 RMK A01 T02790206  RH  064%=      5-min Rain = 0
KTH1 131640Z 17007KT 28/21 A2998 RMK A01 T02810210  RH  065%=      5-min Rain = 0
KTH1 131641Z 17008G13KT 28/21 A2998 RMK A01 T02820209  RH  065%=      5-min Rain = 0
KTH1 131642Z 17010KT 28/21 A2998 RMK A01 T02820207  RH  064%=      5-min Rain = 0
KTH1 131643Z 18011KT 28/21 A2998 RMK A01 T02830208  RH  064%=      5-min Rain = 0
KTH1 131644Z 20007KT 28/21 A2998 RMK A01 T02840208  RH  064%=      5-min Rain = 0
KTH1 131645Z 18007KT 29/21 A2998 RMK A01 T02850210  RH  064%=      5-min Rain = 0
KTH1 131646Z 18010KT 29/21 A2998 RMK A01 T02870211  RH  064%=      5-min Rain = 0
KTH1 131647Z 18010KT 29/21 A2998 RMK A01 T02880211  RH  063%=      5-min Rain = 0
KTH1 131648Z 17013KT 29/21 A2998 RMK A01 T02880208  RH  062%=      5-min Rain = 0
KTH1 131649Z 19010KT 29/21 A2998 RMK A01 T02880209  RH  062%=      5-min Rain = 0
KTH1 131650Z 17009G14KT 29/21 A2998 RMK A01 T02880211  RH  063%=      5-min Rain = 0
KTH1 131651Z 19011KT 29/21 A2998 RMK A01 T02880208  RH  062%=      5-min Rain = 0
KTH1 131652Z 19011KT 29/21 A2998 RMK A01 T02890208  RH  062%=      5-min Rain = 0
KTH1 131653Z 19009G14KT 29/21 A2998 RMK A01 T02880210  RH  063%=      5-min Rain = 0
KTH1 131654Z 18010G15KT 29/21 A2998 RMK A01 T02880209  RH  062%=      5-min Rain = 0
KTH1 131655Z 19010G15KT 29/21 A2998 RMK A01 T02890209  RH  062%=      5-min Rain = 0
KTH1 131656Z 18009KT 29/21 A2998 RMK A01 T02890210  RH  062%=      5-min Rain = 0
KTH1 131657Z 19011KT 29/21 A2998 RMK A01 T02900209  RH  062%=      5-min Rain = 0
KTH1 131658Z 20010KT 29/21 A2998 RMK A01 T02900208  RH  061%=      5-min Rain = 0
KTH1 131659Z 20012G17KT 29/21 A2998 RMK A01 T02890206  RH  061%=      5-min Rain = 0
KTH1 131700Z 19009KT 29/21 A2998 RMK A01 T02880210  RH  063%=      5-min Rain = 0
KTH1 131701Z 20004KT 29/21 A2998 RMK A01 T02890212  RH  063%=      5-min Rain = 0
KTH1 131702Z 19007KT 29/21 A2998 RMK A01 T02900212  RH  063%=      5-min Rain = 0
KTH1 131703Z 19008KT 29/21 A2998 RMK A01 T02910209  RH  061%=      5-min Rain = 0
KTH1 131704Z 18012KT 29/21 A2998 RMK A01 T02890208  RH  061%=      5-min Rain = 0
KTH1 131705Z 18008G13KT 29/21 A2998 RMK A01 T02870208  RH  062%=      5-min Rain = 0
KTH1 131706Z 19011KT 29/21 A2998 RMK A01 T02870211  RH  064%=      5-min Rain = 0
KTH1 131707Z 18010G16KT 29/21 A2998 RMK A01 T02880210  RH  063%=      5-min Rain = 0
KTH1 131708Z 18011KT 29/21 A2998 RMK A01 T02900208  RH  061%=      5-min Rain = 0
KTH1 131709Z 18009KT 29/21 A2998 RMK A01 T02910208  RH  061%=      5-min Rain = 0
KTH1 131710Z 18008KT 29/21 A2998 RMK A01 T02920210  RH  061%=      5-min Rain = 0
KTH1 131711Z 17010KT 29/21 A2998 RMK A01 T02930210  RH  061%=      5-min Rain = 0
KTH1 131712Z 16009G15KT 29/21 A2997 RMK A01 T02940209  RH  060%=      5-min Rain = 0
KTH1 131713Z 16012KT 29/21 A2998 RMK A01 T02940207  RH  060%=      5-min Rain = 0
KTH1 131714Z 18010G15KT 29/21 A2998 RMK A01 T02930208  RH  060%=      5-min Rain = 0
KTH1 131715Z 17009KT 29/21 A2997 RMK A01 T02930210  RH  061%=      5-min Rain = 0
KTH1 131716Z 19009G15KT 29/21 A2997 RMK A01 T02930211  RH  061%=      5-min Rain = 0
KTH1 131717Z 19008G13KT 30/21 A2997 RMK A01 T02950210  RH  060%=      5-min Rain = 0
KTH1 131718Z 16007KT 30/21 A2997 RMK A01 T02960214  RH  061%=      5-min Rain = 0
KTH1 131719Z 17009KT 30/21 A2997 RMK A01 T02970211  RH  060%=      5-min Rain = 0
KTH1 131720Z 18009KT 30/21 A2997 RMK A01 T02980213  RH  060%=      5-min Rain = 0
KTH1 131721Z 16012KT 30/21 A2997 RMK A01 T02990211  RH  059%=      5-min Rain = 0
KTH1 131722Z 17011KT 30/21 A2997 RMK A01 T02980210  RH  059%=      5-min Rain = 0
KTH1 131723Z 16005G10KT 30/21 A2997 RMK A01 T02980213  RH  060%=      5-min Rain = 0
KTH1 131724Z 17009G14KT 30/22 A2997 RMK A01 T02980215  RH  061%=      5-min Rain = 0
KTH1 131725Z 19009KT 30/22 A2997 RMK A01 T02990215  RH  061%=      5-min Rain = 0
KTH1 131726Z 19009G14KT 30/21 A2997 RMK A01 T03010213  RH  059%=      5-min Rain = 0
KTH1 131727Z 20008G13KT 30/21 A2997 RMK A01 T03010214  RH  060%=      5-min Rain = 0
KTH1 131728Z 19011KT 30/21 A2997 RMK A01 T03010213  RH  059%=      5-min Rain = 0
KTH1 131729Z 17012G18KT 30/21 A2997 RMK A01 T03010212  RH  059%=      5-min Rain = 0
KTH1 131730Z 18008KT 30/21 A2997 RMK A01 T03000212  RH  059%=      5-min Rain = 0
KTH1 131731Z 18009G14KT 30/22 A2997 RMK A01 T03010215  RH  060%=      5-min Rain = 0
KTH1 131732Z 17011KT 30/21 A2997 RMK A01 T03020211  RH  058%=      5-min Rain = 0
KTH1 131733Z 18010KT 30/21 A2997 RMK A01 T03010209  RH  058%=      5-min Rain = 0
KTH1 131734Z 18008KT 30/21 A2997 RMK A01 T03010213  RH  059%=      5-min Rain = 0
KTH1 131735Z 19008G14KT 30/21 A2996 RMK A01 T03010214  RH  060%=      5-min Rain = 0
KTH1 131736Z 17008G15KT 30/21 A2996 RMK A01 T03010212  RH  059%=      5-min Rain = 0
KTH1 131737Z 19010KT 30/21 A2996 RMK A01 T03010213  RH  059%=      5-min Rain = 0
KTH1 131738Z 19011KT 30/21 A2996 RMK A01 T03010212  RH  059%=      5-min Rain = 0
KTH1 131739Z 17008G13KT 30/21 A2996 RMK A01 T03010212  RH  059%=      5-min Rain = 0
KTH1 131740Z 15011KT 30/21 A2996 RMK A01 T03010211  RH  058%=      5-min Rain = 0
KTH1 131741Z 17012G17KT 30/21 A2996 RMK A01 T03000210  RH  059%=      5-min Rain = 0
KTH1 131742Z 17008KT 30/21 A2996 RMK A01 T02990210  RH  059%=      5-min Rain = 0
KTH1 131743Z 15008KT 30/21 A2996 RMK A01 T02990211  RH  059%=      5-min Rain = 0
KTH1 131744Z 16010KT 30/21 A2996 RMK A01 T03000213  RH  060%=      5-min Rain = 0
KTH1 131745Z 18008KT 30/21 A2996 RMK A01 T03010214  RH  059%=      5-min Rain = 0
KTH1 131746Z 18008KT 30/22 A2996 RMK A01 T03030215  RH  059%=      5-min Rain = 0
KTH1 131747Z 20009G14KT 31/21 A2996 RMK A01 T03050214  RH  058%=      5-min Rain = 0
KTH1 131748Z 19009G15KT 31/21 A2996 RMK A01 T03050212  RH  058%=      5-min Rain = 0
KTH1 131749Z 16011KT 31/22 A2996 RMK A01 T03050216  RH  059%=      5-min Rain = 0
KTH1 131750Z 16007KT 31/21 A2996 RMK A01 T03050210  RH  057%=      5-min Rain = 0
KTH1 131751Z 18008KT 30/21 A2996 RMK A01 T03040213  RH  058%=      5-min Rain = 0
KTH1 131752Z 16005KT 30/21 A2996 RMK A01 T03030214  RH  059%=      5-min Rain = 0
KTH1 131753Z 16007KT 30/22 A2996 RMK A01 T03040215  RH  059%=      5-min Rain = 0
KTH1 131754Z 15011KT 31/21 A2996 RMK A01 T03050212  RH  058%=      5-min Rain = 0
KTH1 131755Z 15008KT 31/21 A2996 RMK A01 T03060212  RH  057%=      5-min Rain = 0
KTH1 131756Z 16011KT 31/21 A2996 RMK A01 T03050213  RH  058%=      5-min Rain = 0
KTH1 131757Z 17009KT 31/21 A2996 RMK A01 T03050210  RH  057%=      5-min Rain = 0
KTH1 131758Z 18010KT 31/21 A2996 RMK A01 T03050212  RH  058%=      5-min Rain = 0
KTH1 131759Z 20011KT 31/21 A2996 RMK A01 T03050209  RH  056%=      5-min Rain = 0
KTH1 131800Z 20010KT 31/21 A2996 RMK A01 T03050209  RH  057%=      5-min Rain = 0
KTH1 131801Z 20013G18KT 31/21 A2996 RMK A01 T03050208  RH  056%=      5-min Rain = 0
KTH1 131802Z 19009G14KT 31/21 A2996 RMK A01 T03050209  RH  057%=      5-min Rain = 0
KTH1 131803Z 20011KT 31/21 A2996 RMK A01 T03050211  RH  057%=      5-min Rain = 0
KTH1 131804Z 20007KT 31/22 A2996 RMK A01 T03060215  RH  058%=      5-min Rain = 0
KTH1 131805Z 18012G17KT 31/21 A2995 RMK A01 T03080214  RH  057%=      5-min Rain = 0
KTH1 131806Z 16009KT 31/21 A2995 RMK A01 T03090213  RH  057%=      5-min Rain = 0
KTH1 131807Z 17009KT 31/21 A2995 RMK A01 T03090214  RH  057%=      5-min Rain = 0
KTH1 131808Z 17012KT 31/21 A2995 RMK A01 T03090207  RH  054%=      5-min Rain = 0
KTH1 131809Z 18005G10KT 31/21 A2995 RMK A01 T03060208  RH  056%=      5-min Rain = 0
KTH1 131810Z 18006KT 31/21 A2995 RMK A01 T03060214  RH  058%=      5-min Rain = 0
KTH1 131811Z 18008KT 31/21 A2995 RMK A01 T03070214  RH  058%=      5-min Rain = 0
KTH1 131812Z 18011KT 31/21 A2995 RMK A01 T03090213  RH  057%=      5-min Rain = 0
KTH1 131813Z 18011G16KT 31/21 A2995 RMK A01 T03110211  RH  055%=      5-min Rain = 0
KTH1 131814Z 18009G14KT 31/21 A2995 RMK A01 T03100206  RH  054%=      5-min Rain = 0
KTH1 131815Z 15009KT 31/21 A2995 RMK A01 T03080208  RH  055%=      5-min Rain = 0
KTH1 131816Z 15009KT 31/21 A2995 RMK A01 T03080209  RH  056%=      5-min Rain = 0
KTH1 131817Z 15008KT 31/21 A2995 RMK A01 T03080212  RH  057%=      5-min Rain = 0
KTH1 131818Z 15009KT 31/21 A2995 RMK A01 T03100212  RH  056%=      5-min Rain = 0
KTH1 131819Z 17010G16KT 31/21 A2995 RMK A01 T03110209  RH  055%=      5-min Rain = 0
KTH1 131820Z 17009G14KT 31/21 A2995 RMK A01 T03110212  RH  056%=      5-min Rain = 0
KTH1 131821Z 19009G15KT 31/21 A2995 RMK A01 T03120214  RH  056%=      5-min Rain = 0
KTH1 131822Z 20010KT 31/21 A2995 RMK A01 T03130209  RH  054%=      5-min Rain = 0
KTH1 131823Z 18005KT 31/21 A2995 RMK A01 T03120210  RH  055%=      5-min Rain = 0
KTH1 131824Z 19005KT 31/21 A2995 RMK A01 T03110209  RH  055%=      5-min Rain = 0
KTH1 131825Z 16006KT 31/21 A2995 RMK A01 T03110211  RH  055%=      5-min Rain = 0
KTH1 131826Z 17005KT 31/21 A2995 RMK A01 T03110213  RH  056%=      5-min Rain = 0
KTH1 131827Z 16006KT 31/22 A2995 RMK A01 T03110216  RH  057%=      5-min Rain = 0
KTH1 131828Z 18008KT 31/22 A2995 RMK A01 T03130215  RH  056%=      5-min Rain = 0
KTH1 131829Z 18009KT 32/21 A2995 RMK A01 T03150211  RH  054%=      5-min Rain = 0
KTH1 131830Z 18006KT 32/21 A2995 RMK A01 T03160210  RH  054%=      5-min Rain = 0
KTH1 131831Z 16006KT 32/21 A2995 RMK A01 T03160213  RH  054%=      5-min Rain = 0
KTH1 131832Z 16009KT 32/21 A2995 RMK A01 T03170212  RH  054%=      5-min Rain = 0
KTH1 131833Z 18009KT 32/21 A2995 RMK A01 T03170210  RH  053%=      5-min Rain = 0
KTH1 131834Z 16010KT 32/21 A2995 RMK A01 T03170209  RH  053%=      5-min Rain = 0
KTH1 131835Z 16008KT 32/21 A2995 RMK A01 T03160210  RH  053%=      5-min Rain = 0
KTH1 131836Z 16008G13KT 32/21 A2994 RMK A01 T03150209  RH  053%=      5-min Rain = 0
KTH1 131837Z 17011KT 32/21 A2995 RMK A01 T03150209  RH  053%=      5-min Rain = 0
KTH1 131838Z 18010KT 31/21 A2995 RMK A01 T03140206  RH  053%=      5-min Rain = 0
KTH1 131839Z 19009KT 31/21 A2994 RMK A01 T03140205  RH  052%=      5-min Rain = 0
KTH1 131840Z 19009KT 31/21 A2994 RMK A01 T03130205  RH  053%=      5-min Rain = 0
KTH1 131841Z 19011KT 31/21 A2994 RMK A01 T03120208  RH  054%=      5-min Rain = 0
KTH1 131842Z 17008KT 31/21 A2994 RMK A01 T03120212  RH  055%=      5-min Rain = 0
KTH1 131843Z 17007KT 31/21 A2994 RMK A01 T03140213  RH  055%=      5-min Rain = 0
KTH1 131844Z 18008KT 32/21 A2994 RMK A01 T03150211  RH  054%=      5-min Rain = 0
KTH1 131845Z 17007G12KT 32/21 A2994 RMK A01 T03150211  RH  054%=      5-min Rain = 0
KTH1 131846Z 16009KT 32/21 A2994 RMK A01 T03150211  RH  054%=      5-min Rain = 0
KTH1 131847Z 16012KT 32/21 A2994 RMK A01 T03150209  RH  053%=      5-min Rain = 0
KTH1 131848Z 16008KT 31/21 A2994 RMK A01 T03140208  RH  053%=      5-min Rain = 0
KTH1 131849Z 17011KT 31/21 A2994 RMK A01 T03140209  RH  054%=      5-min Rain = 0
KTH1 131850Z 19010KT 31/21 A2994 RMK A01 T03140209  RH  054%=      5-min Rain = 0
KTH1 131851Z 19011KT 32/21 A2994 RMK A01 T03150206  RH  052%=      5-min Rain = 0
KTH1 131852Z 18009KT 32/21 A2994 RMK A01 T03150206  RH  052%=      5-min Rain = 0
KTH1 131853Z 18007G13KT 32/21 A2994 RMK A01 T03150209  RH  054%=      5-min Rain = 0
KTH1 131854Z 15012KT 32/21 A2994 RMK A01 T03150206  RH  053%=      5-min Rain = 0
KTH1 131855Z 16013G18KT 31/20 A2994 RMK A01 T03130204  RH  052%=      5-min Rain = 0
KTH1 131856Z 16012KT 31/21 A2994 RMK A01 T03120206  RH  053%=      5-min Rain = 0
KTH1 131857Z 15008KT 31/21 A2994 RMK A01 T03130209  RH  054%=      5-min Rain = 0
KTH1 131858Z 16007G13KT 32/21 A2994 RMK A01 T03150212  RH  054%=      5-min Rain = 0
KTH1 131859Z 17011KT 32/21 A2994 RMK A01 T03180211  RH  053%=      5-min Rain = 0
KTH1 131900Z 17009KT 32/21 A2994 RMK A01 T03190205  RH  051%=      5-min Rain = 0
KTH1 131901Z 17007KT 32/21 A2994 RMK A01 T03180212  RH  053%=      5-min Rain = 0
KTH1 131902Z 19008KT 32/21 A2993 RMK A01 T03190212  RH  053%=      5-min Rain = 0
KTH1 131903Z 19010KT 32/21 A2993 RMK A01 T03210207  RH  051%=      5-min Rain = 0
KTH1 131904Z 17011KT 32/21 A2993 RMK A01 T03200211  RH  053%=      5-min Rain = 0
KTH1 131905Z 16008KT 32/21 A2993 RMK A01 T03200212  RH  053%=      5-min Rain = 0
KTH1 131906Z 17008KT 32/22 A2993 RMK A01 T03200215  RH  054%=      5-min Rain = 0
KTH1 131907Z 19006KT 32/22 A2993 RMK A01 T03230219  RH  054%=      5-min Rain = 0
KTH1 131908Z 18012KT 32/21 A2993 RMK A01 T03240209  RH  051%=      5-min Rain = 0
KTH1 131909Z 18009G15KT 32/21 A2993 RMK A01 T03230207  RH  050%=      5-min Rain = 0
KTH1 131910Z 19009KT 32/21 A2993 RMK A01 T03220205  RH  050%=      5-min Rain = 0
KTH1 131911Z 17008G14KT 32/21 A2993 RMK A01 T03200208  RH  052%=      5-min Rain = 0
KTH1 131912Z 18011KT 32/21 A2993 RMK A01 T03200207  RH  051%=      5-min Rain = 0
KTH1 131913Z 17008G13KT 32/21 A2993 RMK A01 T03210212  RH  053%=      5-min Rain = 0
KTH1 131914Z 16010KT 32/20 A2993 RMK A01 T03220204  RH  050%=      5-min Rain = 0
KTH1 131915Z 16007KT 32/21 A2993 RMK A01 T03180208  RH  052%=      5-min Rain = 0
KTH1 131916Z 16008G15KT 32/21 A2993 RMK A01 T03170214  RH  054%=      5-min Rain = 0
KTH1 131917Z 17009G15KT 32/21 A2993 RMK A01 T03180213  RH  054%=      5-min Rain = 0
KTH1 131918Z 15011G16KT 32/21 A2993 RMK A01 T03190206  RH  051%=      5-min Rain = 0
KTH1 131919Z 14011KT 32/21 A2993 RMK A01 T03180205  RH  051%=      5-min Rain = 0
KTH1 131920Z 15009KT 32/21 A2993 RMK A01 T03190207  RH  052%=      5-min Rain = 0
KTH1 131921Z 18008KT 32/21 A2993 RMK A01 T03200209  RH  052%=      5-min Rain = 0
KTH1 131922Z 16009KT 32/21 A2993 RMK A01 T03220209  RH  051%=      5-min Rain = 0
KTH1 131923Z 15010KT 32/21 A2993 RMK A01 T03230210  RH  052%=      5-min Rain = 0
KTH1 131924Z 16009KT 32/21 A2993 RMK A01 T03230210  RH  051%=      5-min Rain = 0
KTH1 131925Z 16007KT 32/21 A2993 RMK A01 T03240209  RH  051%=      5-min Rain = 0
KTH1 131926Z 17008KT 32/21 A2993 RMK A01 T03220205  RH  050%=      5-min Rain = 0
KTH1 131927Z 18006KT 32/21 A2993 RMK A01 T03210208  RH  051%=      5-min Rain = 0
KTH1 131928Z 17011KT 32/20 A2992 RMK A01 T03190204  RH  051%=      5-min Rain = 0
KTH1 131929Z 16011KT 32/20 A2992 RMK A01 T03180202  RH  050%=      5-min Rain = 0
KTH1 131930Z 16009KT 32/21 A2992 RMK A01 T03170205  RH  051%=      5-min Rain = 0
KTH1 131931Z 17010KT 32/20 A2992 RMK A01 T03180204  RH  051%=      5-min Rain = 0
KTH1 131932Z 16012KT 32/20 A2992 RMK A01 T03190203  RH  050%=      5-min Rain = 0
KTH1 131933Z 16011G16KT 32/21 A2992 RMK A01 T03190205  RH  051%=      5-min Rain = 0
KTH1 131934Z 14013KT 32/21 A2992 RMK A01 T03200209  RH  052%=      5-min Rain = 0
KTH1 131935Z 15009G15KT 32/21 A2992 RMK A01 T03220210  RH  052%=      5-min Rain = 0
KTH1 131936Z 16010KT 32/21 A2992 RMK A01 T03230211  RH  052%=      5-min Rain = 0
KTH1 131937Z 18009KT 32/21 A2992 RMK A01 T03240210  RH  051%=      5-min Rain = 0
KTH1 131938Z 18009KT 32/21 A2992 RMK A01 T03240212  RH  052%=      5-min Rain = 0
KTH1 131939Z 16010KT 33/21 A2992 RMK A01 T03250208  RH  050%=      5-min Rain = 0
KTH1 131940Z 16009G15KT 33/21 A2992 RMK A01 T03250207  RH  050%=      5-min Rain = 0
KTH1 131941Z 15012KT 33/20 A2992 RMK A01 T03250203  RH  049%=      5-min Rain = 0
KTH1 131942Z 15011KT 32/21 A2992 RMK A01 T03240206  RH  050%=      5-min Rain = 0
KTH1 131943Z 15012KT 32/20 A2992 RMK A01 T03230202  RH  049%=      5-min Rain = 0
KTH1 131944Z 16009KT 32/21 A2992 RMK A01 T03230207  RH  050%=      5-min Rain = 0
KTH1 131945Z 15009KT 32/21 A2992 RMK A01 T03240206  RH  050%=      5-min Rain = 0
KTH1 131946Z 18007G13KT 33/21 A2992 RMK A01 T03250209  RH  050%=      5-min Rain = 0
KTH1 131947Z 18009KT 33/21 A2992 RMK A01 T03270207  RH  050%=      5-min Rain = 0
KTH1 131948Z 17008KT 33/21 A2992 RMK A01 T03270206  RH  049%=      5-min Rain = 0
KTH1 131949Z 18006KT 33/21 A2992 RMK A01 T03280210  RH  050%=      5-min Rain = 0
KTH1 131950Z 17010G15KT 33/21 A2992 RMK A01 T03290210  RH  050%=      5-min Rain = 0
KTH1 131951Z 17009KT 33/21 A2992 RMK A01 T03290206  RH  048%=      5-min Rain = 0
KTH1 131952Z 17012KT 33/20 A2992 RMK A01 T03290204  RH  048%=      5-min Rain = 0
KTH1 131953Z 17010KT 33/20 A2992 RMK A01 T03280197  RH  046%=      5-min Rain = 0
KTH1 131954Z 15011KT 33/20 A2992 RMK A01 T03260202  RH  048%=      5-min Rain = 0
KTH1 131955Z 15013KT 33/20 A2992 RMK A01 T03260202  RH  048%=      5-min Rain = 0
KTH1 131956Z 15011KT 33/20 A2992 RMK A01 T03250204  RH  049%=      5-min Rain = 0
KTH1 131957Z 14013KT 33/20 A2992 RMK A01 T03250203  RH  049%=      5-min Rain = 0
KTH1 131958Z 14012KT 32/20 A2992 RMK A01 T03240203  RH  049%=      5-min Rain = 0
KTH1 131959Z 17009KT 32/20 A2992 RMK A01 T03230204  RH  050%=      5-min Rain = 0
KTH1 132000Z 18005KT 32/21 A2992 RMK A01 T03230206  RH  050%=      5-min Rain = 0
KTH1 132001Z 18009KT 33/21 A2992 RMK A01 T03250211  RH  051%=      5-min Rain = 0
KTH1 132002Z 15010KT 33/20 A2991 RMK A01 T03270203  RH  048%=      5-min Rain = 0
KTH1 132003Z 15009G14KT 33/21 A2991 RMK A01 T03270206  RH  049%=      5-min Rain = 0
KTH1 132004Z 15011G16KT 33/20 A2991 RMK A01 T03260204  RH  049%=      5-min Rain = 0
KTH1 132005Z 16011KT 32/20 A2991 RMK A01 T03240203  RH  049%=      5-min Rain = 0
KTH1 132006Z 17006KT 32/21 A2991 RMK A01 T03230207  RH  051%=      5-min Rain = 0
KTH1 132007Z 14012G18KT 32/21 A2991 RMK A01 T03240207  RH  050%=      5-min Rain = 0
KTH1 132008Z 14011KT 33/21 A2991 RMK A01 T03260207  RH  050%=      5-min Rain = 0
KTH1 132009Z 15009KT 33/21 A2991 RMK A01 T03270206  RH  049%=      5-min Rain = 0
KTH1 132010Z 16009KT 33/21 A2991 RMK A01 T03270207  RH  049%=      5-min Rain = 0
KTH1 132011Z 16011KT 33/21 A2991 RMK A01 T03260207  RH  049%=      5-min Rain = 0
KTH1 132012Z 15010KT 32/20 A2991 RMK A01 T03230203  RH  049%=      5-min Rain = 0
KTH1 132013Z 15012G17KT 32/20 A2991 RMK A01 T03190202  RH  050%=      5-min Rain = 0
KTH1 132014Z 15013KT 32/20 A2991 RMK A01 T03170201  RH  050%=      5-min Rain = 0
KTH1 132015Z 14013KT 32/20 A2991 RMK A01 T03170200  RH  050%=      5-min Rain = 0
KTH1 132016Z 16011KT 32/20 A2991 RMK A01 T03190200  RH  049%=      5-min Rain = 0
KTH1 132017Z 14010KT 32/20 A2991 RMK A01 T03200203  RH  050%=      5-min Rain = 0
KTH1 132018Z 15012KT 32/20 A2991 RMK A01 T03220204  RH  050%=      5-min Rain = 0
KTH1 132019Z 15013KT 32/20 A2991 RMK A01 T03230200  RH  048%=      5-min Rain = 0
KTH1 132020Z 16011KT 32/20 A2991 RMK A01 T03230199  RH  048%=      5-min Rain = 0
KTH1 132021Z 15008KT 32/20 A2991 RMK A01 T03230200  RH  048%=      5-min Rain = 0
KTH1 132022Z 17011KT 32/21 A2991 RMK A01 T03240205  RH  049%=      5-min Rain = 0
KTH1 132023Z 17009KT 33/20 A2991 RMK A01 T03250203  RH  049%=      5-min Rain = 0
KTH1 132024Z 16007KT 33/21 A2991 RMK A01 T03250205  RH  049%=      5-min Rain = 0
KTH1 132025Z 16011KT 33/21 A2991 RMK A01 T03270205  RH  049%=      5-min Rain = 0
KTH1 132026Z 16010KT 33/20 A2991 RMK A01 T03270203  RH  048%=      5-min Rain = 0
KTH1 132027Z 16009KT 33/20 A2991 RMK A01 T03270204  RH  048%=      5-min Rain = 0
KTH1 132028Z 17008G14KT 33/21 A2991 RMK A01 T03270206  RH  049%=      5-min Rain = 0
KTH1 132029Z 17012KT 33/20 A2991 RMK A01 T03270203  RH  048%=      5-min Rain = 0
KTH1 132030Z 17012G17KT 33/20 A299 RMK A01 T03270197  RH  046%=      5-min Rain = 0
KTH1 132031Z 17012KT 33/20 A299 RMK A01 T03250199  RH  047%=      5-min Rain = 0
KTH1 132032Z 17011KT 32/20 A299 RMK A01 T03240198  RH  047%=      5-min Rain = 0
KTH1 132033Z 18008KT 32/20 A299 RMK A01 T03240198  RH  048%=      5-min Rain = 0
KTH1 132034Z 18009KT 32/20 A299 RMK A01 T03240197  RH  047%=      5-min Rain = 0
KTH1 132035Z 18009KT 32/20 A299 RMK A01 T03240199  RH  048%=      5-min Rain = 0
KTH1 132036Z 19010KT 33/20 A299 RMK A01 T03250203  RH  049%=      5-min Rain = 0
KTH1 132037Z 18013KT 33/20 A299 RMK A01 T03260201  RH  048%=      5-min Rain = 0
KTH1 132038Z 17009KT 33/20 A299 RMK A01 T03270200  RH  047%=      5-min Rain = 0
KTH1 132039Z 16008G16KT 33/20 A299 RMK A01 T03260200  RH  047%=      5-min Rain = 0
KTH1 132040Z 17009G14KT 33/20 A299 RMK A01 T03260203  RH  048%=      5-min Rain = 0
KTH1 132041Z 18012KT 33/20 A299 RMK A01 T03260203  RH  048%=      5-min Rain = 0
KTH1 132042Z 17012KT 33/20 A299 RMK A01 T03270198  RH  047%=      5-min Rain = 0
KTH1 132043Z 17010KT 33/20 A299 RMK A01 T03270198  RH  046%=      5-min Rain = 0
KTH1 132044Z 19008G14KT 33/20 A299 RMK A01 T03270200  RH  047%=      5-min Rain = 0
KTH1 132045Z 19009KT 33/20 A299 RMK A01 T03270198  RH  047%=      5-min Rain = 0
KTH1 132046Z 16007KT 33/20 A299 RMK A01 T03270200  RH  047%=      5-min Rain = 0
KTH1 132047Z 16010G15KT 33/20 A299 RMK A01 T03280203  RH  048%=      5-min Rain = 0
KTH1 132048Z 15008KT 33/20 A299 RMK A01 T03290199  RH  047%=      5-min Rain = 0
KTH1 132049Z 17009KT 33/20 A299 RMK A01 T03290203  RH  048%=      5-min Rain = 0
KTH1 132050Z 17008KT 33/20 A299 RMK A01 T03290201  RH  047%=      5-min Rain = 0
KTH1 132051Z 17011KT 33/20 A299 RMK A01 T03290199  RH  046%=      5-min Rain = 0
KTH1 132052Z 17009KT 33/20 A299 RMK A01 T03290202  RH  047%=      5-min Rain = 0
KTH1 132053Z 17011G16KT 33/20 A299 RMK A01 T03290199  RH  046%=      5-min Rain = 0
KTH1 132054Z 18009KT 33/20 A299 RMK A01 T03290199  RH  046%=      5-min Rain = 0
KTH1 132055Z 18009KT 33/20 A299 RMK A01 T03290200  RH  047%=      5-min Rain = 0
KTH1 132056Z 18009KT 33/20 A299 RMK A01 T03290201  RH  047%=      5-min Rain = 0
KTH1 132057Z 16009G14KT 33/20 A299 RMK A01 T03300201  RH  047%=      5-min Rain = 0
KTH1 132058Z 16008KT 33/20 A2989 RMK A01 T03310204  RH  047%=      5-min Rain = 0
KTH1 132059Z 14009G14KT 33/20 A2989 RMK A01 T03300199  RH  046%=      5-min Rain = 0
KTH1 132100Z 14012KT 33/20 A2989 RMK A01 T03290201  RH  047%=      5-min Rain = 0
KTH1 132101Z 15008KT 33/20 A2989 RMK A01 T03290200  RH  047%=      5-min Rain = 0
KTH1 132102Z 15008G13KT 33/20 A2989 RMK A01 T03290201  RH  047%=      5-min Rain = 0
KTH1 132103Z 15013G18KT 33/20 A2989 RMK A01 T03300204  RH  048%=      5-min Rain = 0
KTH1 132104Z 15012G18KT 33/20 A2989 RMK A01 T03300200  RH  046%=      5-min Rain = 0
KTH1 132105Z 16010KT 33/20 A2989 RMK A01 T03300201  RH  047%=      5-min Rain = 0
KTH1 132106Z 16012KT 33/20 A2989 RMK A01 T03290200  RH  047%=      5-min Rain = 0
KTH1 132107Z 17010G16KT 33/20 A2989 RMK A01 T03290199  RH  047%=      5-min Rain = 0
KTH1 132108Z 17011KT 33/19 A2989 RMK A01 T03290193  RH  045%=      5-min Rain = 0
KTH1 132109Z 17010G15KT 33/20 A2989 RMK A01 T03280195  RH  046%=      5-min Rain = 0
KTH1 132110Z 16011KT 33/20 A2989 RMK A01 T03280198  RH  046%=      5-min Rain = 0
KTH1 132111Z 16008KT 33/20 A2989 RMK A01 T03290201  RH  047%=      5-min Rain = 0
KTH1 132112Z 15010KT 33/20 A2989 RMK A01 T03310204  RH  047%=      5-min Rain = 0
KTH1 132113Z 14013KT 33/20 A2989 RMK A01 T03320200  RH  046%=      5-min Rain = 0
KTH1 132114Z 14009G14KT 33/20 A2989 RMK A01 T03310201  RH  047%=      5-min Rain = 0
KTH1 132115Z 16011KT 33/20 A2989 RMK A01 T03300203  RH  047%=      5-min Rain = 0
KTH1 132116Z 16012KT 33/20 A2989 RMK A01 T03290199  RH  046%=      5-min Rain = 0
KTH1 132117Z 16010KT 33/20 A2989 RMK A01 T03270198  RH  047%=      5-min Rain = 0
KTH1 132118Z 16008G13KT 33/20 A2989 RMK A01 T03250199  RH  047%=      5-min Rain = 0
KTH1 132119Z 16009G14KT 32/20 A2989 RMK A01 T03240202  RH  049%=      5-min Rain = 0
KTH1 132120Z 14010KT 32/20 A2989 RMK A01 T03230202  RH  049%=      5-min Rain = 0
KTH1 132121Z 13011KT 32/20 A2989 RMK A01 T03210200  RH  049%=      5-min Rain = 0
KTH1 132122Z 15010KT 32/20 A2989 RMK A01 T03200198  RH  048%=      5-min Rain = 0
KTH1 132123Z 14008KT 32/20 A2989 RMK A01 T03190202  RH  050%=      5-min Rain = 0
KTH1 132124Z 14009KT 32/20 A2989 RMK A01 T03190200  RH  050%=      5-min Rain = 0
KTH1 132125Z 15012KT 32/20 A2989 RMK A01 T03170197  RH  049%=      5-min Rain = 0
KTH1 132126Z 15009KT 32/20 A2989 RMK A01 T03170199  RH  050%=      5-min Rain = 0
KTH1 132127Z 16009KT 32/20 A2989 RMK A01 T03200199  RH  049%=      5-min Rain = 0
KTH1 132128Z 15009KT 32/20 A2989 RMK A01 T03230202  RH  049%=      5-min Rain = 0
KTH1 132129Z 16009G16KT 33/20 A2988 RMK A01 T03250204  RH  049%=      5-min Rain = 0
KTH1 132130Z 16009KT 33/20 A2989 RMK A01 T03270203  RH  048%=      5-min Rain = 0
KTH1 132131Z 15010G20KT 33/20 A2988 RMK A01 T03290204  RH  048%=      5-min Rain = 0
KTH1 132132Z 14013G19KT 33/20 A2988 RMK A01 T03300200  RH  047%=      5-min Rain = 0
KTH1 132133Z 15014KT 33/20 A2989 RMK A01 T03290202  RH  047%=      5-min Rain = 0
KTH1 132134Z 15011KT 33/20 A2989 RMK A01 T03270198  RH  047%=      5-min Rain = 0
KTH1 132135Z 16009KT 32/20 A2989 RMK A01 T03220197  RH  048%=      5-min Rain = 0
KTH1 132136Z 15010KT 32/20 A2989 RMK A01 T03190195  RH  048%=      5-min Rain = 0
KTH1 132137Z 14011KT 32/20 A2988 RMK A01 T03180196  RH  049%=      5-min Rain = 0
KTH1 132138Z 15012KT 32/20 A2988 RMK A01 T03170199  RH  050%=      5-min Rain = 0
KTH1 132139Z 14010KT 32/20 A2988 RMK A01 T03180198  RH  049%=      5-min Rain = 0
KTH1 132140Z 14010KT 32/20 A2988 RMK A01 T03200199  RH  049%=      5-min Rain = 0
KTH1 132141Z 13012G19KT 32/20 A2988 RMK A01 T03210202  RH  050%=      5-min Rain = 0
KTH1 132142Z 14017KT 32/20 A2988 RMK A01 T03230198  RH  048%=      5-min Rain = 0
KTH1 132143Z 14014KT 32/20 A2988 RMK A01 T03230199  RH  048%=      5-min Rain = 0
KTH1 132144Z 14012KT 32/20 A2988 RMK A01 T03230198  RH  048%=      5-min Rain = 0
KTH1 132145Z 15011G17KT 32/20 A2988 RMK A01 T03230202  RH  049%=      5-min Rain = 0
KTH1 132146Z 15013G19KT 32/20 A2988 RMK A01 T03230196  RH  047%=      5-min Rain = 0
KTH1 132147Z 15014KT 32/20 A2988 RMK A01 T03210196  RH  048%=      5-min Rain = 0
KTH1 132148Z 15010G16KT 32/20 A2988 RMK A01 T03200200  RH  049%=      5-min Rain = 0
KTH1 132149Z 15011KT 32/20 A2988 RMK A01 T03220198  RH  048%=      5-min Rain = 0
KTH1 132150Z 16011G16KT 32/20 A2988 RMK A01 T03220200  RH  048%=      5-min Rain = 0
KTH1 132151Z 15014KT 32/20 A2988 RMK A01 T03230198  RH  048%=      5-min Rain = 0
KTH1 132152Z 16013G18KT 32/20 A2988 RMK A01 T03230197  RH  047%=      5-min Rain = 0
KTH1 132153Z 16011KT 32/20 A2988 RMK A01 T03220195  RH  047%=      5-min Rain = 0
KTH1 132154Z 14013KT 32/20 A2988 RMK A01 T03210198  RH  048%=      5-min Rain = 0
KTH1 132155Z 14011KT 32/20 A2988 RMK A01 T03210199  RH  048%=      5-min Rain = 0
KTH1 132156Z 14012KT 32/20 A2988 RMK A01 T03200197  RH  048%=      5-min Rain = 0
KTH1 132157Z 14012KT 32/20 A2988 RMK A01 T03180196  RH  048%=      5-min Rain = 0
KTH1 132158Z 14010KT 32/20 A2988 RMK A01 T03160195  RH  049%=      5-min Rain = 0
KTH1 132159Z 15011G17KT 32/20 A2988 RMK A01 T03150196  RH  049%=      5-min Rain = 0
KTH1 132200Z 14011G17KT 32/20 A2988 RMK A01 T03170196  RH  049%=      5-min Rain = 0
KTH1 132201Z 14011KT 32/20 A2987 RMK A01 T03180196  RH  048%=      5-min Rain = 0
KTH1 132202Z 15010G15KT 32/20 A2987 RMK A01 T03200197  RH  048%=      5-min Rain = 0
KTH1 132203Z 17012G17KT 32/20 A2988 RMK A01 T03210198  RH  048%=      5-min Rain = 0
KTH1 132204Z 16008KT 32/20 A2988 RMK A01 T03220199  RH  048%=      5-min Rain = 0
KTH1 132205Z 15010KT 32/20 A2988 RMK A01 T03230201  RH  048%=      5-min Rain = 0
KTH1 132206Z 16014KT 32/20 A2988 RMK A01 T03230196  RH  047%=      5-min Rain = 0
KTH1 132207Z 16013KT 32/19 A2988 RMK A01 T03200192  RH  047%=      5-min Rain = 0
KTH1 132208Z 16010KT 32/19 A2988 RMK A01 T03170192  RH  047%=      5-min Rain = 0
KTH1 132209Z 16008G13KT 32/20 A2988 RMK A01 T03160196  RH  049%=      5-min Rain = 0
KTH1 132210Z 14013G18KT 32/19 A2987 RMK A01 T03160194  RH  048%=      5-min Rain = 0
KTH1 132211Z 13014G19KT 32/20 A2988 RMK A01 T03180195  RH  048%=      5-min Rain = 0
KTH1 132212Z 14015G21KT 32/19 A2988 RMK A01 T03180193  RH  047%=      5-min Rain = 0
KTH1 132213Z 15009KT 32/20 A2988 RMK A01 T03180196  RH  048%=      5-min Rain = 0
KTH1 132214Z 15010KT 32/20 A2987 RMK A01 T03190198  RH  049%=      5-min Rain = 0
KTH1 132215Z 13009KT 32/20 A2987 RMK A01 T03200200  RH  049%=      5-min Rain = 0
KTH1 132216Z 14015KT 32/20 A2987 RMK A01 T03210196  RH  048%=      5-min Rain = 0
KTH1 132217Z 13014KT 32/20 A2987 RMK A01 T03200195  RH  047%=      5-min Rain = 0
KTH1 132218Z 14013KT 32/20 A2987 RMK A01 T03190195  RH  048%=      5-min Rain = 0
KTH1 132219Z 14008KT 32/20 A2987 RMK A01 T03190197  RH  049%=      5-min Rain = 0
KTH1 132220Z 14010KT 32/20 A2987 RMK A01 T03190197  RH  049%=      5-min Rain = 0
KTH1 132221Z 16010KT 32/20 A2987 RMK A01 T03200197  RH  048%=      5-min Rain = 0
KTH1 132222Z 15015KT 32/19 A2987 RMK A01 T03200194  RH  047%=      5-min Rain = 0
KTH1 132223Z 15012G17KT 32/19 A2987 RMK A01 T03200192  RH  047%=      5-min Rain = 0
KTH1 132224Z 15013KT 32/19 A2987 RMK A01 T03200193  RH  047%=      5-min Rain = 0
KTH1 132225Z 16010G15KT 32/19 A2987 RMK A01 T03200193  RH  047%=      5-min Rain = 0
KTH1 132226Z 15011KT 32/20 A2987 RMK A01 T03200196  RH  048%=      5-min Rain = 0
KTH1 132227Z 15011KT 32/20 A2987 RMK A01 T03200197  RH  048%=      5-min Rain = 0
KTH1 132228Z 14013KT 32/19 A2987 RMK A01 T03210192  RH  047%=      5-min Rain = 0
KTH1 132229Z 14012KT 32/19 A2987 RMK A01 T03200192  RH  047%=      5-min Rain = 0
KTH1 132230Z 14010KT 32/19 A2987 RMK A01 T03190194  RH  047%=      5-min Rain = 0
KTH1 132231Z 14013KT 32/20 A2987 RMK A01 T03190195  RH  048%=      5-min Rain = 0
KTH1 132232Z 13010KT 32/19 A2987 RMK A01 T03190193  RH  047%=      5-min Rain = 0
KTH1 132233Z 13010KT 32/19 A2987 RMK A01 T03200193  RH  047%=      5-min Rain = 0
KTH1 132234Z 15012KT 32/19 A2987 RMK A01 T03200194  RH  047%=      5-min Rain = 0
KTH1 132235Z 14012G17KT 32/19 A2987 RMK A01 T03200191  RH  046%=      5-min Rain = 0
KTH1 132236Z 14012G17KT 32/19 A2987 RMK A01 T03200192  RH  047%=      5-min Rain = 0
KTH1 132237Z 13011KT 32/19 A2987 RMK A01 T03200192  RH  047%=      5-min Rain = 0
KTH1 132238Z 14014KT 32/19 A2987 RMK A01 T03190190  RH  046%=      5-min Rain = 0
KTH1 132239Z 15011KT 32/19 A2987 RMK A01 T03200192  RH  047%=      5-min Rain = 0
KTH1 132240Z 14011G16KT 32/19 A2987 RMK A01 T03200193  RH  047%=      5-min Rain = 0
KTH1 132241Z 14010KT 32/19 A2987 RMK A01 T03200194  RH  047%=      5-min Rain = 0
KTH1 132242Z 15012G17KT 32/19 A2987 RMK A01 T03210194  RH  047%=      5-min Rain = 0
KTH1 132243Z 15013KT 32/19 A2987 RMK A01 T03210191  RH  046%=      5-min Rain = 0
KTH1 132244Z 15012G18KT 32/19 A2987 RMK A01 T03210191  RH  046%=      5-min Rain = 0
KTH1 132245Z 15011G16KT 32/19 A2987 RMK A01 T03210191  RH  046%=      5-min Rain = 0
KTH1 132246Z 14010G15KT 32/19 A2987 RMK A01 T03210192  RH  046%=      5-min Rain = 0
KTH1 132247Z 14012KT 32/19 A2987 RMK A01 T03210191  RH  046%=      5-min Rain = 0
KTH1 132248Z 16012KT 32/19 A2987 RMK A01 T03210189  RH  046%=      5-min Rain = 0
KTH1 132249Z 15010KT 32/19 A2987 RMK A01 T03200188  RH  046%=      5-min Rain = 0
KTH1 132250Z 16011G17KT 32/19 A2987 RMK A01 T03200189  RH  046%=      5-min Rain = 0
KTH1 132251Z 15011KT 32/19 A2987 RMK A01 T03200188  RH  045%=      5-min Rain = 0
KTH1 132252Z 15008KT 32/19 A2987 RMK A01 T03200191  RH  046%=      5-min Rain = 0
KTH1 132253Z 14011KT 32/19 A2987 RMK A01 T03210192  RH  046%=      5-min Rain = 0
KTH1 132254Z 15011G16KT 32/19 A2987 RMK A01 T03210189  RH  046%=      5-min Rain = 0
KTH1 132255Z 14010KT 32/19 A2986 RMK A01 T03210193  RH  047%=      5-min Rain = 0
KTH1 132256Z 14012G17KT 32/19 A2986 RMK A01 T03210192  RH  046%=      5-min Rain = 0
KTH1 132257Z 13011KT 32/19 A2986 RMK A01 T03200187  RH  045%=      5-min Rain = 0
KTH1 132258Z 14012KT 32/19 A2986 RMK A01 T03190187  RH  045%=      5-min Rain = 0
KTH1 132259Z 14008KT 32/19 A2986 RMK A01 T03190189  RH  046%=      5-min Rain = 0
KTH1 132300Z 15009G14KT 32/19 A2986 RMK A01 T03190193  RH  047%=      5-min Rain = 0
KTH1 132301Z 14010KT 32/19 A2986 RMK A01 T03190191  RH  046%=      5-min Rain = 0
KTH1 132302Z 14009KT 32/19 A2986 RMK A01 T03200193  RH  047%=      5-min Rain = 0
KTH1 132303Z 14014G19KT 32/19 A2986 RMK A01 T03200190  RH  046%=      5-min Rain = 0
KTH1 132304Z 14011G16KT 32/19 A2986 RMK A01 T03200188  RH  045%=      5-min Rain = 0
KTH1 132305Z 14013G19KT 32/19 A2986 RMK A01 T03190188  RH  046%=      5-min Rain = 0
KTH1 132306Z 14013KT 32/19 A2986 RMK A01 T03190186  RH  045%=      5-min Rain = 0
KTH1 132307Z 15012KT 32/19 A2986 RMK A01 T03180187  RH  046%=      5-min Rain = 0
KTH1 132308Z 14012KT 32/19 A2986 RMK A01 T03180186  RH  046%=      5-min Rain = 0
KTH1 132309Z 15009KT 32/19 A2986 RMK A01 T03180187  RH  046%=      5-min Rain = 0
KTH1 132310Z 14013G21KT 32/19 A2986 RMK A01 T03170189  RH  047%=      5-min Rain = 0
KTH1 132311Z 14016KT 32/19 A2986 RMK A01 T03180186  RH  045%=      5-min Rain = 0
KTH1 132312Z 15015KT 32/19 A2986 RMK A01 T03180186  RH  045%=      5-min Rain = 0
KTH1 132313Z 15011KT 32/19 A2986 RMK A01 T03170186  RH  046%=      5-min Rain = 0
KTH1 132314Z 15010G15KT 32/19 A2986 RMK A01 T03170187  RH  046%=      5-min Rain = 0
KTH1 132315Z 14010KT 32/19 A2985 RMK A01 T03180186  RH  046%=      5-min Rain = 0
KTH1 132316Z 16012KT 32/19 A2985 RMK A01 T03170185  RH  045%=      5-min Rain = 0
KTH1 132317Z 15011G17KT 32/18 A2985 RMK A01 T03170183  RH  045%=      5-min Rain = 0
KTH1 132318Z 14014G20KT 32/18 A2985 RMK A01 T03170184  RH  045%=      5-min Rain = 0
KTH1 132319Z 15013G18KT 32/18 A2985 RMK A01 T03170184  RH  045%=      5-min Rain = 0
KTH1 132320Z 15015KT 32/18 A2985 RMK A01 T03160182  RH  045%=      5-min Rain = 0
KTH1 132321Z 15013KT 32/18 A2985 RMK A01 T03160181  RH  045%=      5-min Rain = 0
KTH1 132322Z 14012G19KT 32/18 A2985 RMK A01 T03150182  RH  045%=      5-min Rain = 0
KTH1 132323Z 14011KT 32/18 A2985 RMK A01 T03150184  RH  046%=      5-min Rain = 0
KTH1 132324Z 14015G20KT 32/18 A2985 RMK A01 T03150183  RH  046%=      5-min Rain = 0
KTH1 132325Z 14015KT 32/18 A2985 RMK A01 T03150183  RH  045%=      5-min Rain = 0
KTH1 132326Z 14014KT 32/18 A2985 RMK A01 T03150182  RH  045%=      5-min Rain = 0
KTH1 132327Z 14013KT 32/18 A2985 RMK A01 T03150184  RH  046%=      5-min Rain = 0
KTH1 132328Z 14011KT 32/18 A2985 RMK A01 T03150184  RH  046%=      5-min Rain = 0
KTH1 132329Z 14010KT 32/19 A2985 RMK A01 T03150186  RH  046%=      5-min Rain = 0
KTH1 132330Z 14013KT 32/18 A2985 RMK A01 T03150184  RH  046%=      5-min Rain = 0
KTH1 132331Z 14011KT 31/18 A2985 RMK A01 T03140183  RH  045%=      5-min Rain = 0
KTH1 132332Z 14014KT 31/18 A2985 RMK A01 T03140182  RH  045%=      5-min Rain = 0
KTH1 132333Z 14014G19KT 31/18 A2985 RMK A01 T03140182  RH  045%=      5-min Rain = 0
KTH1 132334Z 14012KT 31/18 A2985 RMK A01 T03140181  RH  045%=      5-min Rain = 0
KTH1 132335Z 14011KT 31/18 A2985 RMK A01 T03140182  RH  045%=      5-min Rain = 0
KTH1 132336Z 14012G19KT 31/18 A2984 RMK A01 T03130183  RH  046%=      5-min Rain = 0
KTH1 132337Z 14017G22KT 31/18 A2984 RMK A01 T03130180  RH  045%=      5-min Rain = 0
KTH1 132338Z 14012G17KT 31/18 A2984 RMK A01 T03130180  RH  045%=      5-min Rain = 0
KTH1 132339Z 14012G18KT 31/18 A2984 RMK A01 T03130180  RH  045%=      5-min Rain = 0
KTH1 132340Z 15009G14KT 31/18 A2985 RMK A01 T03130182  RH  046%=      5-min Rain = 0
KTH1 132341Z 14012G18KT 31/18 A2985 RMK A01 T03120183  RH  046%=      5-min Rain = 0
KTH1 132342Z 14012KT 31/18 A2985 RMK A01 T03130180  RH  045%=      5-min Rain = 0
KTH1 132343Z 15012KT 31/18 A2985 RMK A01 T03130181  RH  046%=      5-min Rain = 0
KTH1 132344Z 15009KT 31/18 A2985 RMK A01 T03130182  RH  046%=      5-min Rain = 0
KTH1 132345Z 16009KT 31/18 A2985 RMK A01 T03120183  RH  046%=      5-min Rain = 0
KTH1 132346Z 15011KT 31/18 A2985 RMK A01 T03130182  RH  046%=      5-min Rain = 0
KTH1 132347Z 14012G18KT 31/18 A2985 RMK A01 T03120181  RH  046%=      5-min Rain = 0
KTH1 132348Z 15012KT 31/18 A2985 RMK A01 T03120182  RH  046%=      5-min Rain = 0
KTH1 132349Z 15013G19KT 31/18 A2985 RMK A01 T03120180  RH  045%=      5-min Rain = 0
KTH1 132350Z 15014KT 31/18 A2985 RMK A01 T03120178  RH  045%=      5-min Rain = 0
KTH1 132351Z 14014KT 31/18 A2985 RMK A01 T03110176  RH  045%=      5-min Rain = 0
KTH1 132352Z 14013G19KT 31/18 A2985 RMK A01 T03110177  RH  045%=      5-min Rain = 0
KTH1 132353Z 14012KT 31/18 A2985 RMK A01 T03100177  RH  045%=      5-min Rain = 0
KTH1 132354Z 14010G15KT 31/18 A2985 RMK A01 T03100179  RH  045%=      5-min Rain = 0
KTH1 132355Z 14010G16KT 31/18 A2985 RMK A01 T03100179  RH  046%=      5-min Rain = 0
KTH1 132356Z 14010G16KT 31/18 A2985 RMK A01 T03100178  RH  045%=      5-min Rain = 0
KTH1 132357Z 14010G16KT 31/18 A2985 RMK A01 T03100179  RH  046%=      5-min Rain = 0
KTH1 132358Z 15010KT 31/18 A2985 RMK A01 T03090179  RH  046%=      5-min Rain = 0
KTH1 132359Z 14011KT 31/18 A2985 RMK A01 T03090179  RH  046%=      5-min Rain = 0
KTH1 140000Z 14011G18KT 31/18 A2985 RMK A01 T03090179  RH  046%=      5-min Rain = 0
KTH1 140001Z 14012G19KT 31/18 A2985 RMK A01 T03090178  RH  046%=      5-min Rain = 0
KTH1 140002Z 15012KT 31/18 A2985 RMK A01 T03090178  RH  046%=      5-min Rain = 0
KTH1 140003Z 15011KT 31/18 A2985 RMK A01 T03090179  RH  046%=      5-min Rain = 0
KTH1 140004Z 14013KT 31/18 A2985 RMK A01 T03090180  RH  046%=      5-min Rain = 0
KTH1 140005Z 14013KT 31/18 A2985 RMK A01 T03080178  RH  046%=      5-min Rain = 0
KTH1 140006Z 14008KT 31/18 A2985 RMK A01 T03080179  RH  046%=      5-min Rain = 0
KTH1 140007Z 15010G16KT 31/18 A2985 RMK A01 T03080181  RH  047%=      5-min Rain = 0
KTH1 140008Z 15010KT 31/18 A2985 RMK A01 T03070180  RH  047%=      5-min Rain = 0
KTH1 140009Z 14012G17KT 31/18 A2985 RMK A01 T03070180  RH  047%=      5-min Rain = 0
KTH1 140010Z 15011KT 31/18 A2985 RMK A01 T03070180  RH  047%=      5-min Rain = 0
KTH1 140011Z 15010KT 31/18 A2985 RMK A01 T03070180  RH  047%=      5-min Rain = 0
KTH1 140012Z 16011KT 31/18 A2985 RMK A01 T03060179  RH  047%=      5-min Rain = 0
KTH1 140013Z 15010KT 31/18 A2985 RMK A01 T03070180  RH  047%=      5-min Rain = 0
KTH1 140014Z 14008G15KT 31/18 A2985 RMK A01 T03070180  RH  047%=      5-min Rain = 0
KTH1 140015Z 14011KT 31/18 A2985 RMK A01 T03060180  RH  047%=      5-min Rain = 0
KTH1 140016Z 15013KT 31/18 A2985 RMK A01 T03060179  RH  047%=      5-min Rain = 0
KTH1 140017Z 16011KT 31/18 A2985 RMK A01 T03060178  RH  047%=      5-min Rain = 0
KTH1 140018Z 15010KT 31/18 A2985 RMK A01 T03050178  RH  047%=      5-min Rain = 0
KTH1 140019Z 14008KT 31/18 A2985 RMK A01 T03050180  RH  047%=      5-min Rain = 0
KTH1 140020Z 14009G15KT 30/18 A2985 RMK A01 T03040181  RH  048%=      5-min Rain = 0
KTH1 140021Z 14011KT 30/18 A2985 RMK A01 T03040181  RH  048%=      5-min Rain = 0
KTH1 140022Z 14011G17KT 30/18 A2985 RMK A01 T03030180  RH  048%=      5-min Rain = 0
KTH1 140023Z 14012KT 30/18 A2985 RMK A01 T03030179  RH  047%=      5-min Rain = 0
KTH1 140024Z 15011KT 30/18 A2985 RMK A01 T03030178  RH  047%=      5-min Rain = 0
KTH1 140025Z 15010KT 30/18 A2985 RMK A01 T03030179  RH  047%=      5-min Rain = 0
KTH1 140026Z 15010KT 30/18 A2985 RMK A01 T03030179  RH  047%=      5-min Rain = 0
KTH1 140027Z 14012KT 30/18 A2985 RMK A01 T03030178  RH  047%=      5-min Rain = 0
KTH1 140028Z 14012KT 30/18 A2985 RMK A01 T03020178  RH  047%=      5-min Rain = 0
KTH1 140029Z 14011KT 30/18 A2985 RMK A01 T03020177  RH  047%=      5-min Rain = 0
KTH1 140030Z 14011KT 30/18 A2985 RMK A01 T03020177  RH  047%=      5-min Rain = 0
KTH1 140031Z 15009KT 30/18 A2985 RMK A01 T03020178  RH  047%=      5-min Rain = 0
KTH1 140032Z 15009KT 30/18 A2985 RMK A01 T03020180  RH  048%=      5-min Rain = 0
KTH1 140033Z 14010KT 30/18 A2985 RMK A01 T03010180  RH  048%=      5-min Rain = 0
KTH1 140034Z 14012KT 30/18 A2985 RMK A01 T03010178  RH  048%=      5-min Rain = 0
KTH1 140035Z 14009KT 30/18 A2985 RMK A01 T03010179  RH  048%=      5-min Rain = 0
KTH1 140036Z 14009KT 30/18 A2985 RMK A01 T03000180  RH  048%=      5-min Rain = 0
KTH1 140037Z 14008KT 30/18 A2985 RMK A01 T03000181  RH  049%=      5-min Rain = 0
KTH1 140038Z 14009KT 30/18 A2985 RMK A01 T02990180  RH  049%=      5-min Rain = 0
KTH1 140039Z 15009KT 30/18 A2985 RMK A01 T02990181  RH  049%=      5-min Rain = 0
KTH1 140040Z 14012KT 30/18 A2985 RMK A01 T02980179  RH  049%=      5-min Rain = 0
KTH1 140041Z 15012KT 30/18 A2985 RMK A01 T02980177  RH  048%=      5-min Rain = 0
KTH1 140042Z 14009G14KT 30/18 A2985 RMK A01 T02980177  RH  048%=      5-min Rain = 0
KTH1 140043Z 15011KT 30/18 A2985 RMK A01 T02980178  RH  049%=      5-min Rain = 0
KTH1 140044Z 14010KT 30/18 A2985 RMK A01 T02980177  RH  048%=      5-min Rain = 0
KTH1 140045Z 15010G17KT 30/18 A2984 RMK A01 T02970177  RH  049%=      5-min Rain = 0
KTH1 140046Z 14012KT 30/18 A2984 RMK A01 T02970176  RH  048%=      5-min Rain = 0
KTH1 140047Z 14008G13KT 30/18 A2984 RMK A01 T02970177  RH  048%=      5-min Rain = 0
KTH1 140048Z 14009KT 30/18 A2984 RMK A01 T02970179  RH  049%=      5-min Rain = 0
KTH1 140049Z 14009KT 30/18 A2984 RMK A01 T02960178  RH  049%=      5-min Rain = 0
KTH1 140050Z 14009KT 30/18 A2984 RMK A01 T02950177  RH  049%=      5-min Rain = 0
KTH1 140051Z 15008KT 29/18 A2985 RMK A01 T02940178  RH  049%=      5-min Rain = 0
KTH1 140052Z 14011KT 29/18 A2984 RMK A01 T02940177  RH  049%=      5-min Rain = 0
KTH1 140053Z 14009KT 29/18 A2985 RMK A01 T02930176  RH  049%=      5-min Rain = 0
KTH1 140054Z 14011KT 29/18 A2984 RMK A01 T02930176  RH  049%=      5-min Rain = 0
KTH1 140055Z 15009KT 29/18 A2984 RMK A01 T02930176  RH  049%=      5-min Rain = 0
KTH1 140056Z 14009KT 29/18 A2984 RMK A01 T02920177  RH  050%=      5-min Rain = 0
KTH1 140057Z 15010KT 29/18 A2984 RMK A01 T02920177  RH  050%=      5-min Rain = 0
KTH1 140058Z 14010KT 29/18 A2984 RMK A01 T02910176  RH  050%=      5-min Rain = 0
KTH1 140059Z 14009KT 29/18 A2984 RMK A01 T02910176  RH  050%=      5-min Rain = 0
KTH1 140100Z 14009KT 29/18 A2984 RMK A01 T02900176  RH  050%=      5-min Rain = 0
KTH1 140101Z 13009KT 29/18 A2984 RMK A01 T02890176  RH  050%=      5-min Rain = 0
KTH1 140102Z 14009KT 29/18 A2984 RMK A01 T02890175  RH  050%=      5-min Rain = 0
KTH1 140103Z 14009KT 29/18 A2984 RMK A01 T02880175  RH  050%=      5-min Rain = 0
KTH1 140104Z 14009KT 29/18 A2984 RMK A01 T02880175  RH  050%=      5-min Rain = 0
KTH1 140105Z 14009KT 29/18 A2984 RMK A01 T02880175  RH  050%=      5-min Rain = 0
KTH1 140106Z 14008KT 29/18 A2984 RMK A01 T02880175  RH  051%=      5-min Rain = 0
KTH1 140107Z 14009KT 29/18 A2984 RMK A01 T02870175  RH  051%=      5-min Rain = 0
KTH1 140108Z 14009G14KT 29/17 A2984 RMK A01 T02870174  RH  050%=      5-min Rain = 0
KTH1 140109Z 14009KT 29/18 A2984 RMK A01 T02860175  RH  051%=      5-min Rain = 0
KTH1 140110Z 14009KT 29/18 A2984 RMK A01 T02860175  RH  051%=      5-min Rain = 0
KTH1 140111Z 14010KT 29/17 A2984 RMK A01 T02850174  RH  051%=      5-min Rain = 0
KTH1 140112Z 14008KT 29/17 A2984 RMK A01 T02850174  RH  051%=      5-min Rain = 0
KTH1 140113Z 14008KT 29/17 A2984 RMK A01 T02850174  RH  051%=      5-min Rain = 0
KTH1 140114Z 14008KT 29/17 A2984 RMK A01 T02850174  RH  051%=      5-min Rain = 0
KTH1 140115Z 14009KT 28/17 A2984 RMK A01 T02840174  RH  051%=      5-min Rain = 0
KTH1 140116Z 14007KT 28/17 A2984 RMK A01 T02840174  RH  051%=      5-min Rain = 0
KTH1 140117Z 14008KT 28/17 A2984 RMK A01 T02840174  RH  051%=      5-min Rain = 0
KTH1 140118Z 15008KT 28/17 A2984 RMK A01 T02840173  RH  051%=      5-min Rain = 0
KTH1 140119Z 15009KT 28/17 A2985 RMK A01 T02830173  RH  051%=      5-min Rain = 0
KTH1 140120Z 15007KT 28/17 A2985 RMK A01 T02840173  RH  051%=      5-min Rain = 0
KTH1 140121Z 14008KT 28/17 A2985 RMK A01 T02830173  RH  051%=      5-min Rain = 0
KTH1 140122Z 14008KT 28/17 A2985 RMK A01 T02830173  RH  051%=      5-min Rain = 0
KTH1 140123Z 14008KT 28/17 A2985 RMK A01 T02830173  RH  051%=      5-min Rain = 0
KTH1 140124Z 15007KT 28/17 A2985 RMK A01 T02820173  RH  051%=      5-min Rain = 0
KTH1 140125Z 15006KT 28/17 A2985 RMK A01 T02820173  RH  052%=      5-min Rain = 0
KTH1 140126Z 15006KT 28/17 A2985 RMK A01 T02810174  RH  052%=      5-min Rain = 0
KTH1 140127Z 15007KT 28/17 A2985 RMK A01 T02800174  RH  052%=      5-min Rain = 0
KTH1 140128Z 15005KT 28/17 A2985 RMK A01 T02800174  RH  053%=      5-min Rain = 0
KTH1 140129Z 15006KT 28/17 A2985 RMK A01 T02790174  RH  053%=      5-min Rain = 0
KTH1 140130Z 15007KT 28/17 A2985 RMK A01 T02780174  RH  053%=      5-min Rain = 0
KTH1 140131Z 15007KT 28/17 A2985 RMK A01 T02780174  RH  053%=      5-min Rain = 0
KTH1 140132Z 15006KT 28/17 A2985 RMK A01 T02770174  RH  053%=      5-min Rain = 0
KTH1 140133Z 15007KT 28/17 A2985 RMK A01 T02770174  RH  054%=      5-min Rain = 0
KTH1 140134Z 14006KT 28/17 A2985 RMK A01 T02760174  RH  054%=      5-min Rain = 0
KTH1 140135Z 14007KT 28/17 A2985 RMK A01 T02750174  RH  054%=      5-min Rain = 0
KTH1 140136Z 14007KT 28/17 A2985 RMK A01 T02750174  RH  054%=      5-min Rain = 0
KTH1 140137Z 15006KT 28/17 A2985 RMK A01 T02750174  RH  054%=      5-min Rain = 0
KTH1 140138Z 14007KT 27/17 A2985 RMK A01 T02740174  RH  054%=      5-min Rain = 0
KTH1 140139Z 14007KT 27/17 A2985 RMK A01 T02740174  RH  054%=      5-min Rain = 0
KTH1 140140Z 14006KT 27/17 A2985 RMK A01 T02740174  RH  055%=      5-min Rain = 0
KTH1 140141Z 14007KT 27/17 A2985 RMK A01 T02730174  RH  055%=      5-min Rain = 0
KTH1 140142Z 14007KT 27/17 A2985 RMK A01 T02730174  RH  055%=      5-min Rain = 0
KTH1 140143Z 14006KT 27/17 A2985 RMK A01 T02720174  RH  055%=      5-min Rain = 0
KTH1 140144Z 15007KT 27/17 A2985 RMK A01 T02720174  RH  055%=      5-min Rain = 0
KTH1 140145Z 14006KT 27/17 A2985 RMK A01 T02720174  RH  055%=      5-min Rain = 0
KTH1 140146Z 14005KT 27/18 A2985 RMK A01 T02710175  RH  055%=      5-min Rain = 0
KTH1 140147Z 14006KT 27/18 A2985 RMK A01 T02710175  RH  056%=      5-min Rain = 0
KTH1 140148Z 14006KT 27/17 A2985 RMK A01 T02700174  RH  056%=      5-min Rain = 0
KTH1 140149Z 14006KT 27/18 A2985 RMK A01 T02700175  RH  056%=      5-min Rain = 0
KTH1 140150Z 14006KT 27/18 A2985 RMK A01 T02690175  RH  056%=      5-min Rain = 0
KTH1 140151Z 14005KT 27/18 A2986 RMK A01 T02690175  RH  056%=      5-min Rain = 0
KTH1 140152Z 14005KT 27/18 A2986 RMK A01 T02690175  RH  056%=      5-min Rain = 0
KTH1 140153Z 14005KT 27/18 A2986 RMK A01 T02680175  RH  057%=      5-min Rain = 0
KTH1 140154Z 13006KT 27/18 A2986 RMK A01 T02680175  RH  057%=      5-min Rain = 0
KTH1 140155Z 14006KT 27/18 A2986 RMK A01 T02680176  RH  057%=      5-min Rain = 0
KTH1 140156Z 15006KT 27/18 A2986 RMK A01 T02670175  RH  057%=      5-min Rain = 0
KTH1 140157Z 14006KT 27/18 A2986 RMK A01 T02670175  RH  057%=      5-min Rain = 0
KTH1 140158Z 14007KT 27/18 A2986 RMK A01 T02670176  RH  057%=      5-min Rain = 0
KTH1 140159Z 14007KT 27/18 A2986 RMK A01 T02660176  RH  057%=      5-min Rain = 0
KTH1 140200Z 14007KT 27/18 A2986 RMK A01 T02660176  RH  058%=      5-min Rain = 0
KTH1 140201Z 14007KT 27/18 A2986 RMK A01 T02660176  RH  058%=      5-min Rain = 0
KTH1 140202Z 14007KT 27/18 A2986 RMK A01 T02660176  RH  058%=      5-min Rain = 0
KTH1 140203Z 14007KT 27/18 A2986 RMK A01 T02660176  RH  058%=      5-min Rain = 0
KTH1 140204Z 14007KT 27/18 A2986 RMK A01 T02660176  RH  058%=      5-min Rain = 0
KTH1 140205Z 14008KT 27/18 A2986 RMK A01 T02660175  RH  058%=      5-min Rain = 0
KTH1 140206Z 14007KT 27/18 A2986 RMK A01 T02660176  RH  058%=      5-min Rain = 0
KTH1 140207Z 14008KT 27/18 A2986 RMK A01 T02660176  RH  058%=      5-min Rain = 0
KTH1 140208Z 14007KT 27/18 A2986 RMK A01 T02670177  RH  058%=      5-min Rain = 0
KTH1 140209Z 14008KT 27/18 A2986 RMK A01 T02660177  RH  058%=      5-min Rain = 0
KTH1 140210Z 14006KT 27/18 A2986 RMK A01 T02660177  RH  058%=      5-min Rain = 0
KTH1 140211Z 14007KT 27/18 A2986 RMK A01 T02660177  RH  058%=      5-min Rain = 0
KTH1 140212Z 14007KT 27/18 A2986 RMK A01 T02660177  RH  058%=      5-min Rain = 0
KTH1 140213Z 14008KT 27/18 A2986 RMK A01 T02660177  RH  058%=      5-min Rain = 0
KTH1 140214Z 14008KT 27/18 A2986 RMK A01 T02660177  RH  058%=      5-min Rain = 0
KTH1 140215Z 14007KT 27/18 A2986 RMK A01 T02660177  RH  058%=      5-min Rain = 0
KTH1 140216Z 14008KT 27/18 A2986 RMK A01 T02660177  RH  058%=      5-min Rain = 0
KTH1 140217Z 14007KT 27/18 A2986 RMK A01 T02660177  RH  058%=      5-min Rain = 0
KTH1 140218Z 14008KT 27/18 A2986 RMK A01 T02660177  RH  058%=      5-min Rain = 0
KTH1 140219Z 14007KT 27/18 A2986 RMK A01 T02660177  RH  058%=      5-min Rain = 0
KTH1 140220Z 14007KT 27/18 A2986 RMK A01 T02670177  RH  058%=      5-min Rain = 0
KTH1 140221Z 15008KT 27/18 A2986 RMK A01 T02670177  RH  058%=      5-min Rain = 0
KTH1 140222Z 14008KT 27/18 A2986 RMK A01 T02660177  RH  058%=      5-min Rain = 0
KTH1 140223Z 15007KT 27/18 A2986 RMK A01 T02670177  RH  058%=      5-min Rain = 0
KTH1 140224Z 14008KT 27/18 A2986 RMK A01 T02670177  RH  058%=      5-min Rain = 0
KTH1 140225Z 15008KT 27/18 A2986 RMK A01 T02670176  RH  058%=      5-min Rain = 0
KTH1 140226Z 15009KT 27/18 A2986 RMK A01 T02680177  RH  057%=      5-min Rain = 0
KTH1 140227Z 15008KT 27/18 A2986 RMK A01 T02680177  RH  057%=      5-min Rain = 0
KTH1 140228Z 15009KT 27/18 A2986 RMK A01 T02680177  RH  057%=      5-min Rain = 0
KTH1 140229Z 15008KT 27/18 A2986 RMK A01 T02680177  RH  057%=      5-min Rain = 0
KTH1 140230Z 15008KT 27/18 A2986 RMK A01 T02680177  RH  057%=      5-min Rain = 0
KTH1 140231Z 15007KT 27/18 A2986 RMK A01 T02670177  RH  058%=      5-min Rain = 0
KTH1 140232Z 15008KT 27/18 A2986 RMK A01 T02670177  RH  058%=      5-min Rain = 0
KTH1 140233Z 15008KT 27/18 A2986 RMK A01 T02670176  RH  057%=      5-min Rain = 0
KTH1 140234Z 15007KT 27/18 A2986 RMK A01 T02670176  RH  057%=      5-min Rain = 0
KTH1 140235Z 15008KT 27/18 A2986 RMK A01 T02670177  RH  058%=      5-min Rain = 0
KTH1 140236Z 15008KT 27/18 A2986 RMK A01 T02670177  RH  058%=      5-min Rain = 0
KTH1 140237Z 15008KT 27/18 A2986 RMK A01 T02670176  RH  057%=      5-min Rain = 0
KTH1 140238Z 15008KT 27/18 A2986 RMK A01 T02670176  RH  057%=      5-min Rain = 0
KTH1 140239Z 15008KT 27/18 A2986 RMK A01 T02670176  RH  058%=      5-min Rain = 0
KTH1 140240Z 15007KT 27/18 A2986 RMK A01 T02670176  RH  058%=      5-min Rain = 0
KTH1 140241Z 15007KT 27/18 A2986 RMK A01 T02660176  RH  057%=      5-min Rain = 0
KTH1 140242Z 15008KT 27/18 A2986 RMK A01 T02660176  RH  057%=      5-min Rain = 0
KTH1 140243Z 14008KT 27/18 A2987 RMK A01 T02660176  RH  058%=      5-min Rain = 0
KTH1 140244Z 14008KT 27/18 A2987 RMK A01 T02660176  RH  058%=      5-min Rain = 0
KTH1 140245Z 14006KT 27/18 A2987 RMK A01 T02660175  RH  058%=      5-min Rain = 0
KTH1 140246Z 14007KT 27/18 A2987 RMK A01 T02660176  RH  058%=      5-min Rain = 0
KTH1 140247Z 14006KT 27/18 A2987 RMK A01 T02660176  RH  058%=      5-min Rain = 0
KTH1 140248Z 14006KT 27/18 A2987 RMK A01 T02650175  RH  058%=      5-min Rain = 0
KTH1 140249Z 14006KT 27/18 A2987 RMK A01 T02650176  RH  058%=      5-min Rain = 0
KTH1 140250Z 14004KT 27/18 A2988 RMK A01 T02650176  RH  058%=      5-min Rain = 0
KTH1 140251Z 14006KT 26/18 A2988 RMK A01 T02640176  RH  058%=      5-min Rain = 0
KTH1 140252Z 14005KT 26/18 A2988 RMK A01 T02640176  RH  058%=      5-min Rain = 0
KTH1 140253Z 14006KT 26/18 A2988 RMK A01 T02630175  RH  058%=      5-min Rain = 0
KTH1 140254Z 15005KT 26/18 A2988 RMK A01 T02630176  RH  059%=      5-min Rain = 0
KTH1 140255Z 14006KT 26/18 A2988 RMK A01 T02630176  RH  059%=      5-min Rain = 0
KTH1 140256Z 14005KT 26/18 A2988 RMK A01 T02630175  RH  059%=      5-min Rain = 0
KTH1 140257Z 13006KT 26/18 A2988 RMK A01 T02630175  RH  058%=      5-min Rain = 0
KTH1 140258Z 14005KT 26/18 A2989 RMK A01 T02630175  RH  058%=      5-min Rain = 0
KTH1 140259Z 14006KT 26/18 A2989 RMK A01 T02630175  RH  058%=      5-min Rain = 0
KTH1 140300Z 14008KT 26/18 A2989 RMK A01 T02630175  RH  058%=      5-min Rain = 0
KTH1 140301Z 14005KT 26/18 A2989 RMK A01 T02630175  RH  058%=      5-min Rain = 0
KTH1 140302Z 14006KT 26/18 A2989 RMK A01 T02630175  RH  058%=      5-min Rain = 0
KTH1 140303Z 14006KT 26/18 A2989 RMK A01 T02630175  RH  058%=      5-min Rain = 0
KTH1 140304Z 14008KT 26/18 A2989 RMK A01 T02630175  RH  058%=      5-min Rain = 0
KTH1 140305Z 14007KT 26/18 A2989 RMK A01 T02630175  RH  058%=      5-min Rain = 0
KTH1 140306Z 14007KT 26/17 A2989 RMK A01 T02630174  RH  058%=      5-min Rain = 0
KTH1 140307Z 14006KT 26/18 A2989 RMK A01 T02630175  RH  058%=      5-min Rain = 0
KTH1 140308Z 13005KT 26/18 A2989 RMK A01 T02630175  RH  058%=      5-min Rain = 0
KTH1 140309Z 14005KT 26/18 A2989 RMK A01 T02640176  RH  058%=      5-min Rain = 0
KTH1 140310Z 14007KT 26/18 A2989 RMK A01 T02630176  RH  059%=      5-min Rain = 0
KTH1 140311Z 14006KT 26/18 A2989 RMK A01 T02630175  RH  058%=      5-min Rain = 0
KTH1 140312Z 14007KT 26/18 A2989 RMK A01 T02630175  RH  058%=      5-min Rain = 0
KTH1 140313Z 14007KT 26/18 A2989 RMK A01 T02630175  RH  058%=      5-min Rain = 0
KTH1 140314Z 15006KT 26/18 A2989 RMK A01 T02630175  RH  058%=      5-min Rain = 0
KTH1 140315Z 14007KT 26/18 A2989 RMK A01 T02630175  RH  058%=      5-min Rain = 0
KTH1 140316Z 14007KT 26/18 A299 RMK A01 T02630175  RH  058%=      5-min Rain = 0
KTH1 140317Z 14007KT 26/18 A299 RMK A01 T02630175  RH  059%=      5-min Rain = 0
KTH1 140318Z 14006KT 26/18 A299 RMK A01 T02630176  RH  059%=      5-min Rain = 0
KTH1 140319Z 14007KT 26/18 A299 RMK A01 T02630175  RH  059%=      5-min Rain = 0
KTH1 140320Z 14007KT 26/18 A299 RMK A01 T02630175  RH  059%=      5-min Rain = 0
KTH1 140321Z 14008KT 26/18 A299 RMK A01 T02630175  RH  059%=      5-min Rain = 0
KTH1 140322Z 14006KT 26/18 A299 RMK A01 T02630176  RH  059%=      5-min Rain = 0
KTH1 140323Z 14006KT 26/18 A299 RMK A01 T02620176  RH  059%=      5-min Rain = 0
KTH1 140324Z 14007KT 26/18 A299 RMK A01 T02620176  RH  059%=      5-min Rain = 0
KTH1 140325Z 14007KT 26/18 A299 RMK A01 T02620175  RH  059%=      5-min Rain = 0
KTH1 140326Z 14006KT 26/18 A299 RMK A01 T02620175  RH  059%=      5-min Rain = 0
KTH1 140327Z 13007KT 26/18 A299 RMK A01 T02620175  RH  059%=      5-min Rain = 0
KTH1 140328Z 13008KT 26/18 A299 RMK A01 T02620175  RH  059%=      5-min Rain = 0
KTH1 140329Z 13008KT 26/18 A299 RMK A01 T02630176  RH  059%=      5-min Rain = 0
KTH1 140330Z 13007KT 26/18 A299 RMK A01 T02620176  RH  059%=      5-min Rain = 0
KTH1 140331Z 13007KT 26/18 A299 RMK A01 T02630176  RH  059%=      5-min Rain = 0
KTH1 140332Z 13007KT 26/18 A299 RMK A01 T02620176  RH  059%=      5-min Rain = 0
KTH1 140333Z 13007KT 26/18 A299 RMK A01 T02620176  RH  059%=      5-min Rain = 0
KTH1 140334Z 13007KT 26/18 A299 RMK A01 T02610176  RH  059%=      5-min Rain = 0
KTH1 140335Z 13008KT 26/18 A2991 RMK A01 T02610176  RH  059%=      5-min Rain = 0
KTH1 140336Z 13006KT 26/18 A2991 RMK A01 T02610176  RH  059%=      5-min Rain = 0
KTH1 140337Z 13007KT 26/18 A2991 RMK A01 T02610176  RH  060%=      5-min Rain = 0
KTH1 140338Z 13007KT 26/18 A2991 RMK A01 T02610176  RH  060%=      5-min Rain = 0
KTH1 140339Z 14007KT 26/18 A2991 RMK A01 T02610176  RH  060%=      5-min Rain = 0
KTH1 140340Z 14007KT 26/18 A2991 RMK A01 T02610176  RH  060%=      5-min Rain = 0
KTH1 140341Z 14008KT 26/18 A2991 RMK A01 T02610176  RH  060%=      5-min Rain = 0
KTH1 140342Z 14007KT 26/18 A2991 RMK A01 T02610176  RH  060%=      5-min Rain = 0
KTH1 140343Z 13006KT 26/18 A2991 RMK A01 T02610176  RH  059%=      5-min Rain = 0
KTH1 140344Z 14006KT 26/18 A2991 RMK A01 T02610177  RH  060%=      5-min Rain = 0
KTH1 140345Z 13008KT 26/18 A2991 RMK A01 T02610177  RH  060%=      5-min Rain = 0
KTH1 140346Z 14008KT 26/18 A2991 RMK A01 T02600176  RH  060%=      5-min Rain = 0
KTH1 140347Z 14008KT 26/18 A2991 RMK A01 T02610177  RH  060%=      5-min Rain = 0
KTH1 140348Z 14007KT 26/18 A2991 RMK A01 T02600176  RH  060%=      5-min Rain = 0
KTH1 140349Z 14008KT 26/18 A2991 RMK A01 T02610177  RH  060%=      5-min Rain = 0
KTH1 140350Z 14009KT 26/18 A2991 RMK A01 T02600177  RH  060%=      5-min Rain = 0
KTH1 140351Z 14007KT 26/18 A2991 RMK A01 T02600177  RH  060%=      5-min Rain = 0
KTH1 140352Z 14006KT 26/18 A2991 RMK A01 T02600177  RH  060%=      5-min Rain = 0
KTH1 140353Z 14007KT 26/18 A2991 RMK A01 T02600177  RH  060%=      5-min Rain = 0
KTH1 140354Z 14006KT 26/18 A2991 RMK A01 T02600178  RH  061%=      5-min Rain = 0
KTH1 140355Z 14007KT 26/18 A2991 RMK A01 T02590177  RH  061%=      5-min Rain = 0
KTH1 140356Z 14007KT 26/18 A2991 RMK A01 T02590177  RH  061%=      5-min Rain = 0
KTH1 140357Z 13007KT 26/18 A2991 RMK A01 T02590177  RH  061%=      5-min Rain = 0
KTH1 140358Z 14007KT 26/18 A2992 RMK A01 T02580177  RH  061%=      5-min Rain = 0
KTH1 140359Z 14008KT 26/18 A2992 RMK A01 T02580178  RH  061%=      5-min Rain = 0
KTH1 140400Z 14007KT 26/18 A2992 RMK A01 T02580177  RH  061%=      5-min Rain = 0
KTH1 140401Z 13007KT 26/18 A2992 RMK A01 T02580177  RH  061%=      5-min Rain = 0
KTH1 140402Z 13007KT 26/18 A2992 RMK A01 T02580178  RH  061%=      5-min Rain = 0
KTH1 140403Z 13007KT 26/18 A2992 RMK A01 T02580178  RH  061%=      5-min Rain = 0
KTH1 140404Z 14007KT 26/18 A2992 RMK A01 T02570178  RH  061%=      5-min Rain = 0
KTH1 140405Z 14006KT 26/18 A2992 RMK A01 T02570178  RH  062%=      5-min Rain = 0
KTH1 140406Z 13006KT 26/18 A2992 RMK A01 T02570178  RH  062%=      5-min Rain = 0
KTH1 140407Z 13006KT 26/18 A2992 RMK A01 T02560178  RH  062%=      5-min Rain = 0
KTH1 140408Z 14007KT 26/18 A2992 RMK A01 T02570178  RH  062%=      5-min Rain = 0
KTH1 140409Z 14006KT 26/18 A2992 RMK A01 T02560178  RH  062%=      5-min Rain = 0
KTH1 140410Z 14008KT 26/18 A2992 RMK A01 T02560178  RH  062%=      5-min Rain = 0
KTH1 140411Z 14006KT 26/18 A2992 RMK A01 T02570178  RH  062%=      5-min Rain = 0
KTH1 140412Z 14007KT 26/18 A2992 RMK A01 T02560178  RH  062%=      5-min Rain = 0
KTH1 140413Z 14006KT 26/18 A2992 RMK A01 T02560178  RH  062%=      5-min Rain = 0
KTH1 140414Z 14007KT 26/18 A2992 RMK A01 T02560179  RH  062%=      5-min Rain = 0
KTH1 140415Z 14007KT 26/18 A2992 RMK A01 T02560179  RH  062%=      5-min Rain = 0
KTH1 140416Z 14007KT 26/18 A2992 RMK A01 T02560179  RH  062%=      5-min Rain = 0
KTH1 140417Z 13005KT 26/18 A2992 RMK A01 T02550179  RH  063%=      5-min Rain = 0
KTH1 140418Z 14006KT 26/18 A2992 RMK A01 T02550180  RH  063%=      5-min Rain = 0
KTH1 140419Z 13006KT 25/18 A2992 RMK A01 T02540179  RH  063%=      5-min Rain = 0
KTH1 140420Z 13007KT 25/18 A2992 RMK A01 T02540179  RH  063%=      5-min Rain = 0
KTH1 140421Z 14006KT 25/18 A2992 RMK A01 T02540179  RH  063%=      5-min Rain = 0
KTH1 140422Z 14007KT 25/18 A2992 RMK A01 T02540179  RH  063%=      5-min Rain = 0
KTH1 140423Z 13007KT 25/18 A2992 RMK A01 T02540180  RH  063%=      5-min Rain = 0
KTH1 140424Z 14006KT 25/18 A2992 RMK A01 T02540179  RH  063%=      5-min Rain = 0
KTH1 140425Z 14007KT 25/18 A2992 RMK A01 T02540180  RH  064%=      5-min Rain = 0
KTH1 140426Z 14007KT 25/18 A2992 RMK A01 T02530179  RH  064%=      5-min Rain = 0
KTH1 140427Z 14007KT 25/18 A2992 RMK A01 T02530180  RH  064%=      5-min Rain = 0
KTH1 140428Z 14007KT 25/18 A2992 RMK A01 T02530179  RH  064%=      5-min Rain = 0
KTH1 140429Z 14008KT 25/18 A2992 RMK A01 T02530179  RH  064%=      5-min Rain = 0
KTH1 140430Z 15007KT 25/18 A2992 RMK A01 T02530179  RH  064%=      5-min Rain = 0
KTH1 140431Z 14008KT 25/18 A2992 RMK A01 T02530179  RH  064%=      5-min Rain = 0
KTH1 140432Z 14006KT 25/18 A2993 RMK A01 T02530180  RH  064%=      5-min Rain = 0
KTH1 140433Z 14006KT 25/18 A2993 RMK A01 T02530179  RH  064%=      5-min Rain = 0
KTH1 140434Z 15006KT 25/18 A2993 RMK A01 T02530179  RH  064%=      5-min Rain = 0
KTH1 140435Z 15006KT 25/18 A2993 RMK A01 T02530180  RH  064%=      5-min Rain = 0
KTH1 140436Z 15005KT 25/18 A2993 RMK A01 T02530180  RH  064%=      5-min Rain = 0
KTH1 140437Z 14006KT 25/18 A2993 RMK A01 T02530180  RH  064%=      5-min Rain = 0
KTH1 140438Z 14004KT 25/18 A2993 RMK A01 T02530181  RH  064%=      5-min Rain = 0
KTH1 140439Z 15005KT 25/18 A2993 RMK A01 T02530180  RH  064%=      5-min Rain = 0
KTH1 140440Z 14005KT 25/18 A2993 RMK A01 T02520180  RH  064%=      5-min Rain = 0
KTH1 140441Z 14006KT 25/18 A2993 RMK A01 T02520181  RH  064%=      5-min Rain = 0
KTH1 140442Z 15005KT 25/18 A2993 RMK A01 T02520181  RH  065%=      5-min Rain = 0
KTH1 140443Z 14005KT 25/18 A2993 RMK A01 T02520181  RH  065%=      5-min Rain = 0
KTH1 140444Z 14005KT 25/18 A2993 RMK A01 T02510181  RH  065%=      5-min Rain = 0
KTH1 140445Z 14005KT 25/18 A2993 RMK A01 T02510181  RH  065%=      5-min Rain = 0
KTH1 140446Z 14006KT 25/18 A2993 RMK A01 T02510181  RH  065%=      5-min Rain = 0
KTH1 140447Z 14005KT 25/18 A2993 RMK A01 T02510181  RH  065%=      5-min Rain = 0
KTH1 140448Z 13005KT 25/18 A2993 RMK A01 T02510181  RH  065%=      5-min Rain = 0
KTH1 140449Z 13005KT 25/18 A2993 RMK A01 T02510182  RH  065%=      5-min Rain = 0
KTH1 140450Z 13006KT 25/18 A2993 RMK A01 T02510181  RH  065%=      5-min Rain = 0
KTH1 140451Z 13006KT 25/18 A2993 RMK A01 T02500181  RH  065%=      5-min Rain = 0
KTH1 140452Z 13007KT 25/18 A2993 RMK A01 T02500181  RH  065%=      5-min Rain = 0
KTH1 140453Z 13006KT 25/18 A2993 RMK A01 T02510181  RH  065%=      5-min Rain = 0
KTH1 140454Z 13005KT 25/18 A2993 RMK A01 T02510181  RH  065%=      5-min Rain = 0
KTH1 140455Z 13006KT 25/18 A2993 RMK A01 T02510182  RH  065%=      5-min Rain = 0
KTH1 140456Z 13006KT 25/18 A2993 RMK A01 T02510182  RH  065%=      5-min Rain = 0
KTH1 140457Z 13006KT 25/18 A2993 RMK A01 T02510182  RH  065%=      5-min Rain = 0
KTH1 140458Z 13007KT 25/18 A2993 RMK A01 T02510182  RH  065%=      5-min Rain = 0
KTH1 140459Z 13006KT 25/18 A2993 RMK A01 T02510182  RH  065%=      5-min Rain = 0

Page generated in 0.132 seconds.